Darstellungsparameter: Aktuell verwendete Einstellungen:
Skalierung der Graphiken ... ?
xyx+y,   Skalierungsfaktor:      Skalierung: Modus: x, Faktor: 1
Darstellungszeitraum ... ?
Vom - - bis: - -   Zeitraum: 16.08.2021 - 23.10.2021
Min/Max/Avg-Anzeige ... ?
Zeige MMA aktuell
Zeige MMA Monat
Zeige MMA alles
Zeige --A aktuell
Zeige --A Monat
Zeige --A alles
Keine MMA-Anzeige
MMA:
Average (ber die Originaldaten)
MMA-Basis: 17.04.2019 - 19.05.2019
Quicknavigation für Darstellung... ?
Tage:      1T, 2T, 3T, 5T -1T -2T -3T -5T +1T +2T +3T +5T
Wochen: 1W, 2W, 3W -1W -2W -3W +1W +2W +3W
Monate: 1M, 3M, 6M -1M -3M -6M +1M +3M +6M
Jahre:    1J, 3J, 5J, 10J -1J -3J -5J -10J +1J +3J +5J +10J
Nutze für die Darstellung ... ?
Originaldaten oder ...
Mittelwerte Minima Maxima auf...
Stundenbasis Tagesbasis Wochenbasis
Monatsbasis Jahresbasis      Datenbasis: Mittelwerte auf Stundenbasis
Darstellen als:
Statistik (Auto) Statistik J:M      Darstellung:
Zur Graphik,    zurück zur Übersicht aller Sensoren.
 
Tabellarische Datenbersicht: ?
 
Sensor: Nr:Datum:Temp:Abs-Feuchte:Windchill:Wind:
Aussen-T/F 1 16-08-2021 00:00:00 17.925 C 13.67 g/m*3 17.93 C 0.93333 km/h
2 16-08-2021 01:00:00 18.21667 C 14.05 g/m*3 18.22 C 1.73333 km/h
3 16-08-2021 02:00:00 18.31667 C 13.94 g/m*3 18.32 C 1.86667 km/h
4 16-08-2021 03:00:00 18.43333 C 13.99 g/m*3 18.43 C 0.8 km/h
5 16-08-2021 04:00:00 18.325 C 12.92 g/m*3 18.33 C 8.45833 km/h
6 16-08-2021 05:00:00 17.26667 C 11 g/m*3 17.27 C 5.48333 km/h
7 16-08-2021 06:00:00 15.5 C 10.91 g/m*3 15.5 C 2.93333 km/h
8 16-08-2021 07:00:00 15.35833 C 10.95 g/m*3 15.36 C 4.40833 km/h
9 16-08-2021 08:00:00 16.475 C 11.27 g/m*3 16.48 C 7.66667 km/h
10 16-08-2021 09:00:00 17.4 C 11.57 g/m*3 17.4 C 12.9 km/h
11 16-08-2021 10:00:00 18.14167 C 12.03 g/m*3 18.14 C 12.5 km/h
12 16-08-2021 11:00:00 18.45833 C 12.32 g/m*3 18.46 C 10.21667 km/h
13 16-08-2021 12:00:00 18.74167 C 12.67 g/m*3 18.74 C 14.23333 km/h
14 16-08-2021 13:00:00 20.225 C 12.74 g/m*3 20.23 C 18.24167 km/h
15 16-08-2021 14:00:00 20.825 C 12.84 g/m*3 20.83 C 21.44167 km/h
16 16-08-2021 15:00:00 20.275 C 13.11 g/m*3 20.27 C 19.30833 km/h
17 16-08-2021 16:00:00 16.15833 C 12.14 g/m*3 16.16 C 13.15 km/h
18 16-08-2021 17:00:00 15.575 C 12.26 g/m*3 15.58 C 3.48333 km/h
19 16-08-2021 18:00:00 15.86667 C 11.71 g/m*3 15.87 C 11.53333 km/h
20 16-08-2021 19:00:00 14.61667 C 10.93 g/m*3 14.62 C 11.83333 km/h
21 16-08-2021 20:00:00 13.31667 C 10.56 g/m*3 13.32 C 4.40833 km/h
22 16-08-2021 21:00:00 12.775 C 10.47 g/m*3 12.78 C 4.26667 km/h
23 16-08-2021 22:00:00 12.04167 C 10.06 g/m*3 12.04 C 2 km/h
24 16-08-2021 23:00:00 11.325 C 9.68 g/m*3 11.33 C 5.20833 km/h
25 17-08-2021 00:00:00 10.81667 C 9.41 g/m*3 10.65 C 5.09167 km/h
Sensor: Nr:Datum:Temp:Abs-Feuchte:Windchill:Wind:
Aussen-T/F 26 17-08-2021 01:00:00 10.74167 C 9.36 g/m*3 10.74 C 2.26667 km/h
27 17-08-2021 02:00:00 10.68333 C 9.35 g/m*3 10.51 C 5.08333 km/h
28 17-08-2021 03:00:00 11.08333 C 9.48 g/m*3 11.08 C 7.65833 km/h
29 17-08-2021 04:00:00 10.85 C 9.22 g/m*3 10.38 C 6.29167 km/h
30 17-08-2021 05:00:00 10.60833 C 9.16 g/m*3 9.97 C 6.84167 km/h
31 17-08-2021 06:00:00 10.75 C 9.22 g/m*3 9.79 C 8.48333 km/h
32 17-08-2021 07:00:00 11.33333 C 9.47 g/m*3 11.33 C 8.61667 km/h
33 17-08-2021 08:00:00 11.95833 C 9.73 g/m*3 11.96 C 11.43333 km/h
34 17-08-2021 09:00:00 13.425 C 10.41 g/m*3 13.43 C 14.1 km/h
35 17-08-2021 10:00:00 14.475 C 10.62 g/m*3 14.48 C 14.1 km/h
36 17-08-2021 11:00:00 15.16667 C 10.85 g/m*3 15.17 C 15.56667 km/h
37 17-08-2021 12:00:00 16.58333 C 11.36 g/m*3 16.58 C 12.9 km/h
38 17-08-2021 13:00:00 16.89167 C 10.85 g/m*3 16.89 C 14.36667 km/h
39 17-08-2021 14:00:00 16.3 C 10.58 g/m*3 16.3 C 12.9 km/h
40 17-08-2021 15:00:00 16.69167 C 10.77 g/m*3 16.69 C 13.16667 km/h
41 17-08-2021 16:00:00 16.31667 C 11.17 g/m*3 16.32 C 6.56667 km/h
42 17-08-2021 17:00:00 15.5 C 11.78 g/m*3 15.5 C 4 km/h
43 17-08-2021 18:00:00 14.775 C 11.66 g/m*3 14.78 C 2.26667 km/h
44 17-08-2021 19:00:00 14.30833 C 11.46 g/m*3 14.31 C 1.86667 km/h
45 17-08-2021 20:00:00 14.03333 C 11.37 g/m*3 14.03 C 1.46667 km/h
46 17-08-2021 21:00:00 13.675 C 11.22 g/m*3 13.68 C 1.86667 km/h
47 17-08-2021 22:00:00 13.6 C 11.2 g/m*3 13.6 C 3.74167 km/h
48 17-08-2021 23:00:00 13.74167 C 11.4 g/m*3 13.74 C 2.8 km/h
49 18-08-2021 00:00:00 13.875 C 11.49 g/m*3 13.88 C 8.31667 km/h
50 18-08-2021 01:00:00 14.10833 C 11.55 g/m*3 14.11 C 6.03333 km/h
Sensor: Nr:Datum:Temp:Abs-Feuchte:Windchill:Wind:
Aussen-T/F 51 18-08-2021 02:00:00 14.2 C 11.6 g/m*3 14.2 C 5.49167 km/h
52 18-08-2021 03:00:00 14.14167 C 11.56 g/m*3 14.14 C 5.65 km/h
53 18-08-2021 04:00:00 14.375 C 11.62 g/m*3 14.38 C 6.43333 km/h
54 18-08-2021 05:00:00 14.56667 C 11.72 g/m*3 14.57 C 6.175 km/h
55 18-08-2021 06:00:00 14.74167 C 11.75 g/m*3 14.74 C 6.3 km/h
56 18-08-2021 07:00:00 14.89167 C 11.97 g/m*3 14.89 C 5.20833 km/h
57 18-08-2021 08:00:00 15.46667 C 12.4 g/m*3 15.47 C 4.80833 km/h
58 18-08-2021 09:00:00 16.04167 C 12.9 g/m*3 16.04 C 4.275 km/h
59 18-08-2021 10:00:00 16.58333 C 13.3 g/m*3 16.58 C 4.69167 km/h
60 18-08-2021 11:00:00 17.09167 C 13.81 g/m*3 17.09 C 2.94167 km/h
61 18-08-2021 12:00:00 17.45833 C 13.87 g/m*3 17.46 C 5.36667 km/h
62 18-08-2021 13:00:00 18.8 C 14.37 g/m*3 18.8 C 4.825 km/h
63 18-08-2021 14:00:00 19.45833 C 14.08 g/m*3 19.46 C 9.40833 km/h
64 18-08-2021 15:00:00 19.78333 C 13.57 g/m*3 19.78 C 10.60833 km/h
65 18-08-2021 16:00:00 19.5 C 13.92 g/m*3 19.5 C 3.875 km/h
66 18-08-2021 17:00:00 19.2 C 13.93 g/m*3 19.2 C 4.13333 km/h
67 18-08-2021 18:00:00 18.99167 C 13.61 g/m*3 18.99 C 5.63333 km/h
68 18-08-2021 19:00:00 18.21667 C 13.37 g/m*3 18.22 C 3.73333 km/h
69 18-08-2021 20:00:00 17.51667 C 13.2 g/m*3 17.52 C 4.425 km/h
70 18-08-2021 21:00:00 17.15 C 13.08 g/m*3 17.15 C 2.66667 km/h
71 18-08-2021 22:00:00 17.03333 C 12.92 g/m*3 17.03 C 5.09167 km/h
72 18-08-2021 23:00:00 17.21667 C 12.83 g/m*3 17.22 C 4.68333 km/h
73 19-08-2021 00:00:00 17.11667 C 12.83 g/m*3 17.12 C 4.94167 km/h
74 19-08-2021 01:00:00 16.975 C 12.83 g/m*3 16.98 C 7.65 km/h
75 19-08-2021 02:00:00 16.99167 C 12.85 g/m*3 16.99 C 7.91667 km/h
Sensor: Nr:Datum:Temp:Abs-Feuchte:Windchill:Wind:
Aussen-T/F 76 19-08-2021 03:00:00 16.51667 C 12.91 g/m*3 16.52 C 2.4 km/h
77 19-08-2021 04:00:00 16.2 C 12.82 g/m*3 16.2 C 5.76667 km/h
78 19-08-2021 05:00:00 16.5 C 12.81 g/m*3 16.5 C 7.38333 km/h
79 19-08-2021 06:00:00 16.575 C 12.85 g/m*3 16.58 C 4.68333 km/h
80 19-08-2021 07:00:00 16.71667 C 12.93 g/m*3 16.72 C 7.10833 km/h
81 19-08-2021 08:00:00 17.225 C 13.2 g/m*3 17.23 C 6.45 km/h
82 19-08-2021 09:00:00 17.94167 C 13.62 g/m*3 17.94 C 8.48333 km/h
83 19-08-2021 10:00:00 19.09167 C 14.05 g/m*3 19.09 C 10.9 km/h
84 19-08-2021 11:00:00 19.95833 C 14.37 g/m*3 19.96 C 11.56667 km/h
85 19-08-2021 12:00:00 20.25833 C 14.43 g/m*3 20.26 C 14.1 km/h
86 19-08-2021 13:00:00 20.51667 C 14.32 g/m*3 20.52 C 10.625 km/h
87 19-08-2021 14:00:00 20.73333 C 13.89 g/m*3 20.73 C 11.55833 km/h
88 19-08-2021 15:00:00 20.95833 C 14.04 g/m*3 20.96 C 11.01667 km/h
89 19-08-2021 16:00:00 21.23333 C 14.16 g/m*3 21.23 C 9.675 km/h
90 19-08-2021 17:00:00 20.6 C 13.92 g/m*3 20.6 C 8.20833 km/h
91 19-08-2021 18:00:00 19.90833 C 13.64 g/m*3 19.91 C 4.29167 km/h
92 19-08-2021 19:00:00 19.525 C 13.61 g/m*3 19.52 C 3.46667 km/h
93 19-08-2021 20:00:00 18.51667 C 13.36 g/m*3 18.52 C 2.93333 km/h
94 19-08-2021 21:00:00 16.81667 C 12.63 g/m*3 16.82 C 5.74167 km/h
95 19-08-2021 22:00:00 15.7 C 12.15 g/m*3 15.7 C 0.13333 km/h
96 19-08-2021 23:00:00 15.05833 C 11.98 g/m*3 15.06 C 0 km/h
97 20-08-2021 00:00:00 15.275 C 12.3 g/m*3 15.28 C 0 km/h
98 20-08-2021 01:00:00 15.125 C 12.19 g/m*3 15.13 C 0.53333 km/h
99 20-08-2021 02:00:00 15.20833 C 12.34 g/m*3 15.21 C 1.6 km/h
100 20-08-2021 03:00:00 15.1 C 12.12 g/m*3 15.1 C 1.06667 km/h
Sensor: Nr:Datum:Temp:Abs-Feuchte:Windchill:Wind:
Aussen-T/F 101 20-08-2021 04:00:00 14.21667 C 11.56 g/m*3 14.22 C 1.06667 km/h
102 20-08-2021 05:00:00 14.14167 C 11.56 g/m*3 14.14 C 0 km/h
103 20-08-2021 06:00:00 14.325 C 11.75 g/m*3 14.33 C 1.06667 km/h
104 20-08-2021 07:00:00 14.65833 C 11.86 g/m*3 14.66 C 0.66667 km/h
105 20-08-2021 08:00:00 15.1 C 11.92 g/m*3 15.1 C 0.53333 km/h
106 20-08-2021 09:00:00 15.475 C 12.12 g/m*3 15.48 C 1.06667 km/h
107 20-08-2021 10:00:00 16.75833 C 12.45 g/m*3 16.76 C 1.33333 km/h
108 20-08-2021 11:00:00 19.01667 C 13.1 g/m*3 19.02 C 0.66667 km/h
109 20-08-2021 12:00:00 20.78333 C 13.48 g/m*3 20.78 C 4.81667 km/h
110 20-08-2021 13:00:00 21.10833 C 13.81 g/m*3 21.11 C 4.28333 km/h
111 20-08-2021 14:00:00 21.79167 C 13.87 g/m*3 21.79 C 7.91667 km/h
112 20-08-2021 15:00:00 21.16667 C 14.47 g/m*3 21.17 C 9.13333 km/h
113 20-08-2021 16:00:00 20.19167 C 14.21 g/m*3 20.19 C 3.21667 km/h
114 20-08-2021 17:00:00 21.40833 C 14.8 g/m*3 21.41 C 1.73333 km/h
115 20-08-2021 18:00:00 21.725 C 15.04 g/m*3 21.73 C 0.66667 km/h
116 20-08-2021 19:00:00 21.01667 C 14.99 g/m*3 21.02 C 2 km/h
117 20-08-2021 20:00:00 18.775 C 13.86 g/m*3 18.77 C 4.66667 km/h
118 20-08-2021 21:00:00 17.5 C 13.26 g/m*3 17.5 C 2 km/h
119 20-08-2021 22:00:00 16.30833 C 12.63 g/m*3 16.31 C 0 km/h
120 20-08-2021 23:00:00 15.275 C 12.09 g/m*3 15.28 C 0 km/h
121 21-08-2021 00:00:00 14.59167 C 11.7 g/m*3 14.59 C 0 km/h
122 21-08-2021 01:00:00 14.15833 C 11.51 g/m*3 14.16 C 0 km/h
123 21-08-2021 02:00:00 13.625 C 11.2 g/m*3 13.63 C 0 km/h
124 21-08-2021 03:00:00 13.275 C 10.98 g/m*3 13.28 C 0 km/h
125 21-08-2021 04:00:00 13.61667 C 11.31 g/m*3 13.62 C 0 km/h
Sensor: Nr:Datum:Temp:Abs-Feuchte:Windchill:Wind:
Aussen-T/F 126 21-08-2021 05:00:00 13.375 C 11.13 g/m*3 13.38 C 0 km/h
127 21-08-2021 06:00:00 13.7 C 11.38 g/m*3 13.7 C 0 km/h
128 21-08-2021 07:00:00 13.725 C 11.45 g/m*3 13.73 C 0 km/h
129 21-08-2021 08:00:00 13.91667 C 11.64 g/m*3 13.92 C 0 km/h
130 21-08-2021 09:00:00 14.45833 C 12.03 g/m*3 14.46 C 0 km/h
131 21-08-2021 10:00:00 15.66667 C 12.95 g/m*3 15.67 C 0 km/h
132 21-08-2021 11:00:00 17.4 C 14.35 g/m*3 17.4 C 0 km/h
133 21-08-2021 12:00:00 19.89167 C 15.28 g/m*3 19.89 C 3.225 km/h
134 21-08-2021 13:00:00 23.13333 C 15.34 g/m*3 23.13 C 6.575 km/h
135 21-08-2021 14:00:00 24.325 C 15.2 g/m*3 24.33 C 5.48333 km/h
136 21-08-2021 15:00:00 25.64167 C 15.95 g/m*3 25.64 C 5.09167 km/h
137 21-08-2021 16:00:00 26.725 C 17.11 g/m*3 26.73 C 2.81667 km/h
138 21-08-2021 17:00:00 25.86667 C 18 g/m*3 25.87 C 0.66667 km/h
139 21-08-2021 18:00:00 24.64167 C 17.54 g/m*3 24.64 C 1.46667 km/h
140 21-08-2021 19:00:00 22.33333 C 15.96 g/m*3 22.33 C 5.2 km/h
141 21-08-2021 20:00:00 20.63333 C 14.7 g/m*3 20.63 C 5.35833 km/h
142 21-08-2021 21:00:00 19.20833 C 14.19 g/m*3 19.21 C 0.66667 km/h
143 21-08-2021 22:00:00 18.59167 C 14.32 g/m*3 18.59 C 0 km/h
144 21-08-2021 23:00:00 18.34167 C 14.42 g/m*3 18.34 C 0.13333 km/h
145 22-08-2021 00:00:00 18.25 C 14.55 g/m*3 18.25 C 0.13333 km/h
146 22-08-2021 01:00:00 18.33333 C 14.73 g/m*3 18.33 C 1.06667 km/h
147 22-08-2021 02:00:00 17.95833 C 14.53 g/m*3 17.96 C 2.54167 km/h
148 22-08-2021 03:00:00 17.425 C 14.1 g/m*3 17.43 C 0.13333 km/h
149 22-08-2021 04:00:00 16.85 C 13.69 g/m*3 16.85 C 0 km/h
150 22-08-2021 05:00:00 17.2 C 14.06 g/m*3 17.2 C 0.4 km/h
Sensor: Nr:Datum:Temp:Abs-Feuchte:Windchill:Wind:
Aussen-T/F 151 22-08-2021 06:00:00 17 C 13.89 g/m*3 17 C 4.15 km/h
152 22-08-2021 07:00:00 16.66667 C 13.66 g/m*3 16.67 C 4.4 km/h
153 22-08-2021 08:00:00 17.175 C 14.18 g/m*3 17.18 C 1.86667 km/h
154 22-08-2021 09:00:00 17.6 C 14.55 g/m*3 17.6 C 2.26667 km/h
155 22-08-2021 10:00:00 17.95833 C 14.82 g/m*3 17.96 C 2.275 km/h
156 22-08-2021 11:00:00 17.75833 C 14.43 g/m*3 17.76 C 4.80833 km/h
157 22-08-2021 12:00:00 17.46667 C 14.27 g/m*3 17.47 C 3.075 km/h
158 22-08-2021 13:00:00 19.14167 C 15.57 g/m*3 19.14 C 4.275 km/h
159 22-08-2021 14:00:00 19.79167 C 15.45 g/m*3 19.79 C 8.19167 km/h
160 22-08-2021 15:00:00 20.525 C 14.17 g/m*3 20.53 C 10.60833 km/h
161 22-08-2021 16:00:00 22.16667 C 13.96 g/m*3 22.17 C 11.56667 km/h
162 22-08-2021 17:00:00 21.43333 C 13.71 g/m*3 21.43 C 8.70833 km/h
163 22-08-2021 18:00:00 20.66667 C 13.8 g/m*3 20.67 C 11.01667 km/h
164 22-08-2021 19:00:00 19.45 C 13.6 g/m*3 19.45 C 5.5 km/h
165 22-08-2021 20:00:00 18.05833 C 13.36 g/m*3 18.06 C 4.15833 km/h
166 22-08-2021 21:00:00 17.2 C 12.85 g/m*3 17.2 C 4.54167 km/h
167 22-08-2021 22:00:00 16.425 C 12.62 g/m*3 16.43 C 2.26667 km/h
168 22-08-2021 23:00:00 15.775 C 12.44 g/m*3 15.78 C 0.93333 km/h
169 23-08-2021 00:00:00 15.5 C 12.39 g/m*3 15.5 C 1.2 km/h
170 23-08-2021 01:00:00 15.86667 C 12.7 g/m*3 15.87 C 1.6 km/h
171 23-08-2021 02:00:00 16.14167 C 12.8 g/m*3 16.14 C 1.86667 km/h
172 23-08-2021 03:00:00 15.78333 C 12.51 g/m*3 15.78 C 0 km/h
173 23-08-2021 04:00:00 14.94167 C 12.01 g/m*3 14.94 C 0.53333 km/h
174 23-08-2021 05:00:00 14.88333 C 12.11 g/m*3 14.88 C 0.13333 km/h
175 23-08-2021 06:00:00 15.09167 C 12.36 g/m*3 15.09 C 0 km/h
Sensor: Nr:Datum:Temp:Abs-Feuchte:Windchill:Wind:
Aussen-T/F 176 23-08-2021 07:00:00 15.26667 C 12.51 g/m*3 15.27 C 0 km/h
177 23-08-2021 08:00:00 15.90833 C 12.98 g/m*3 15.91 C 0 km/h
178 23-08-2021 09:00:00 16.51667 C 13.2 g/m*3 16.52 C 1.73333 km/h
179 23-08-2021 10:00:00 17.85 C 13.56 g/m*3 17.85 C 3.08333 km/h
180 23-08-2021 11:00:00 19.40833 C 13.65 g/m*3 19.41 C 4.15 km/h
181 23-08-2021 12:00:00 19.975 C 13.69 g/m*3 19.98 C 3.20833 km/h
182 23-08-2021 13:00:00 20.23333 C 13.83 g/m*3 20.23 C 7.25 km/h
183 23-08-2021 14:00:00 18.83333 C 14.31 g/m*3 18.83 C 3.075 km/h
184 23-08-2021 15:00:00 19.85 C 14.8 g/m*3 19.85 C 6.44167 km/h
185 23-08-2021 16:00:00 20.56667 C 14.56 g/m*3 20.57 C 6.325 km/h
186 23-08-2021 17:00:00 20.25833 C 14.01 g/m*3 20.26 C 11.14167 km/h
187 23-08-2021 18:00:00 19.7 C 13.49 g/m*3 19.7 C 10.76667 km/h
188 23-08-2021 19:00:00 19.54167 C 13.66 g/m*3 19.54 C 5.49167 km/h
189 23-08-2021 20:00:00 18.60833 C 13.67 g/m*3 18.61 C 1.06667 km/h
190 23-08-2021 21:00:00 17.33333 C 13.08 g/m*3 17.33 C 0.66667 km/h
191 23-08-2021 22:00:00 16.375 C 12.76 g/m*3 16.38 C 0.4 km/h
192 23-08-2021 23:00:00 15.69167 C 12.41 g/m*3 15.69 C 0.93333 km/h
193 24-08-2021 00:00:00 14.99167 C 11.98 g/m*3 14.99 C 2 km/h
194 24-08-2021 01:00:00 14.21667 C 11.49 g/m*3 14.22 C 0 km/h
195 24-08-2021 02:00:00 13.58333 C 11.12 g/m*3 13.58 C 0 km/h
196 24-08-2021 03:00:00 12.775 C 10.62 g/m*3 12.78 C 0 km/h
197 24-08-2021 04:00:00 12.05 C 10.16 g/m*3 12.05 C 0 km/h
198 24-08-2021 05:00:00 11.33333 C 9.74 g/m*3 11.33 C 0 km/h
199 24-08-2021 06:00:00 11.23333 C 9.75 g/m*3 11.23 C 0 km/h
200 24-08-2021 07:00:00 11.11667 C 9.68 g/m*3 11.12 C 0 km/h
Sensor: Nr:Datum:Temp:Abs-Feuchte:Windchill:Wind:
Aussen-T/F 201 24-08-2021 08:00:00 11.45 C 9.91 g/m*3 11.45 C 0 km/h
202 24-08-2021 09:00:00 12.19167 C 10.46 g/m*3 12.19 C 0 km/h
203 24-08-2021 10:00:00 13.275 C 11.19 g/m*3 13.28 C 0.93333 km/h
204 24-08-2021 11:00:00 14.81667 C 11.45 g/m*3 14.82 C 5.23333 km/h
205 24-08-2021 12:00:00 17.68333 C 10.92 g/m*3 17.68 C 9.68333 km/h
206 24-08-2021 13:00:00 18.95 C 11.29 g/m*3 18.95 C 13.83333 km/h
207 24-08-2021 14:00:00 20.19167 C 11.88 g/m*3 20.19 C 11.01667 km/h
208 24-08-2021 15:00:00 20.83333 C 12.06 g/m*3 20.83 C 8.475 km/h
209 24-08-2021 16:00:00 21.575 C 12.29 g/m*3 21.58 C 10.63333 km/h
210 24-08-2021 17:00:00 22.74167 C 12.03 g/m*3 22.74 C 8.60833 km/h
211 24-08-2021 18:00:00 22.325 C 11.55 g/m*3 22.33 C 8.71667 km/h
212 24-08-2021 19:00:00 20.475 C 12.08 g/m*3 20.48 C 2 km/h
213 24-08-2021 20:00:00 16.65 C 11.34 g/m*3 16.65 C 2.66667 km/h
214 24-08-2021 21:00:00 14.65 C 10.53 g/m*3 14.65 C 2 km/h
215 24-08-2021 22:00:00 13.825 C 10.09 g/m*3 13.83 C 4.80833 km/h
216 24-08-2021 23:00:00 12.94167 C 9.83 g/m*3 12.94 C 3.06667 km/h
217 25-08-2021 00:00:00 11.98333 C 9.5 g/m*3 11.98 C 0.13333 km/h
218 25-08-2021 01:00:00 11.08333 C 9.21 g/m*3 11.08 C 0 km/h
219 25-08-2021 02:00:00 10.6 C 9.07 g/m*3 10.6 C 0 km/h
220 25-08-2021 03:00:00 10.21667 C 8.92 g/m*3 10.22 C 0 km/h
221 25-08-2021 04:00:00 9.95 C 8.84 g/m*3 9.95 C 0 km/h
222 25-08-2021 05:00:00 9.625 C 8.72 g/m*3 9.63 C 0 km/h
223 25-08-2021 06:00:00 9.3 C 8.54 g/m*3 9.3 C 0 km/h
224 25-08-2021 07:00:00 9.34167 C 8.61 g/m*3 9.34 C 0 km/h
225 25-08-2021 08:00:00 9.875 C 8.95 g/m*3 9.88 C 0 km/h
Sensor: Nr:Datum:Temp:Abs-Feuchte:Windchill:Wind:
Aussen-T/F 226 25-08-2021 09:00:00 11 C 9.67 g/m*3 11 C 0 km/h
227 25-08-2021 10:00:00 12.34167 C 10.56 g/m*3 12.34 C 0 km/h
228 25-08-2021 11:00:00 13.84167 C 11.4 g/m*3 13.84 C 0 km/h
229 25-08-2021 12:00:00 16.15 C 11.95 g/m*3 16.15 C 0.26667 km/h
230 25-08-2021 13:00:00 18.475 C 11.55 g/m*3 18.48 C 3.49167 km/h
231 25-08-2021 14:00:00 19.95833 C 11.42 g/m*3 19.96 C 4.01667 km/h
232 25-08-2021 15:00:00 20.84167 C 11.07 g/m*3 20.84 C 6.425 km/h
233 25-08-2021 16:00:00 22.625 C 11.3 g/m*3 22.63 C 9.29167 km/h
234 25-08-2021 17:00:00 24.16667 C 10.94 g/m*3 24.17 C 7.93333 km/h
235 25-08-2021 18:00:00 23.38333 C 10.99 g/m*3 23.38 C 7.24167 km/h
236 25-08-2021 19:00:00 21.4 C 12.2 g/m*3 21.4 C 1.46667 km/h
237 25-08-2021 20:00:00 18.48333 C 11.97 g/m*3 18.48 C 0.4 km/h
238 25-08-2021 21:00:00 16.26667 C 11.22 g/m*3 16.27 C 0.26667 km/h
239 25-08-2021 22:00:00 15.33333 C 11.01 g/m*3 15.33 C 2.13333 km/h
240 25-08-2021 23:00:00 14.40833 C 10.76 g/m*3 14.41 C 0.93333 km/h
241 26-08-2021 00:00:00 14.00833 C 10.81 g/m*3 14.01 C 1.86667 km/h
242 26-08-2021 01:00:00 14.94167 C 11.35 g/m*3 14.94 C 2 km/h
243 26-08-2021 02:00:00 15.83333 C 11.61 g/m*3 15.83 C 4.68333 km/h
244 26-08-2021 03:00:00 15.86667 C 11.5 g/m*3 15.87 C 7.51667 km/h
245 26-08-2021 04:00:00 15.84167 C 11.55 g/m*3 15.84 C 5.89167 km/h
246 26-08-2021 05:00:00 15.45 C 11.89 g/m*3 15.45 C 0.66667 km/h
247 26-08-2021 06:00:00 15.1 C 11.92 g/m*3 15.1 C 7.49167 km/h
248 26-08-2021 07:00:00 14.44167 C 11.11 g/m*3 14.44 C 5.5 km/h
249 26-08-2021 08:00:00 14.44167 C 11 g/m*3 14.44 C 3.08333 km/h
250 26-08-2021 09:00:00 15.03333 C 10.98 g/m*3 15.03 C 5.75833 km/h
Sensor: Nr:Datum:Temp:Abs-Feuchte:Windchill:Wind:
Aussen-T/F 251 26-08-2021 10:00:00 15.89167 C 10.51 g/m*3 15.89 C 11.28333 km/h
252 26-08-2021 11:00:00 16.74167 C 10.23 g/m*3 16.74 C 12.09167 km/h
253 26-08-2021 12:00:00 17.125 C 10.63 g/m*3 17.13 C 8.59167 km/h
254 26-08-2021 13:00:00 16.55 C 11.23 g/m*3 16.55 C 6.56667 km/h
255 26-08-2021 14:00:00 16.88333 C 11.51 g/m*3 16.88 C 9.93333 km/h
256 26-08-2021 15:00:00 17.99167 C 11.62 g/m*3 17.99 C 9.95 km/h
257 26-08-2021 16:00:00 18.15833 C 11.4 g/m*3 18.16 C 12.76667 km/h
258 26-08-2021 17:00:00 19.10833 C 11.62 g/m*3 19.11 C 11.55833 km/h
259 26-08-2021 18:00:00 20.01667 C 11.56 g/m*3 20.02 C 10.35 km/h
260 26-08-2021 19:00:00 18.675 C 11.39 g/m*3 18.68 C 8.725 km/h
261 26-08-2021 20:00:00 17.43333 C 11.34 g/m*3 17.43 C 5.90833 km/h
262 26-08-2021 21:00:00 16.71667 C 11.63 g/m*3 16.72 C 5.21667 km/h
263 26-08-2021 22:00:00 15.975 C 11.85 g/m*3 15.98 C 2.4 km/h
264 26-08-2021 23:00:00 15.41667 C 11.88 g/m*3 15.42 C 2.93333 km/h
265 27-08-2021 00:00:00 14.775 C 11.51 g/m*3 14.78 C 2.53333 km/h
266 27-08-2021 01:00:00 14.03333 C 11.2 g/m*3 14.03 C 3.33333 km/h
267 27-08-2021 02:00:00 13.88333 C 11.01 g/m*3 13.88 C 2.13333 km/h
268 27-08-2021 03:00:00 13.425 C 10.73 g/m*3 13.43 C 2.4 km/h
269 27-08-2021 04:00:00 12.88333 C 10.44 g/m*3 12.88 C 2.00833 km/h
270 27-08-2021 05:00:00 12.88333 C 10.41 g/m*3 12.88 C 0.66667 km/h
271 27-08-2021 06:00:00 12.625 C 10.3 g/m*3 12.63 C 0 km/h
272 27-08-2021 07:00:00 12.775 C 10.39 g/m*3 12.78 C 0 km/h
273 27-08-2021 08:00:00 13.19167 C 10.51 g/m*3 13.19 C 3.74167 km/h
274 27-08-2021 09:00:00 13.9 C 10.72 g/m*3 13.9 C 8.33333 km/h
275 27-08-2021 10:00:00 14.75 C 10.91 g/m*3 14.75 C 8.2 km/h
Sensor: Nr:Datum:Temp:Abs-Feuchte:Windchill:Wind:
Aussen-T/F 276 27-08-2021 11:00:00 15.675 C 11.09 g/m*3 15.68 C 11.29167 km/h
277 27-08-2021 12:00:00 16.50833 C 11.23 g/m*3 16.51 C 13.16667 km/h
278 27-08-2021 13:00:00 17.325 C 11.34 g/m*3 17.33 C 13.3 km/h
279 27-08-2021 14:00:00 17.05833 C 11.51 g/m*3 17.06 C 12.75833 km/h
280 27-08-2021 15:00:00 17.46667 C 11.93 g/m*3 17.47 C 10.34167 km/h
281 27-08-2021 16:00:00 17.475 C 12.08 g/m*3 17.48 C 12.09167 km/h
282 27-08-2021 17:00:00 16.625 C 12.3 g/m*3 16.63 C 9 km/h
283 27-08-2021 18:00:00 16.3 C 12.15 g/m*3 16.3 C 5.75833 km/h
284 27-08-2021 19:00:00 15.73333 C 11.6 g/m*3 15.73 C 8.6 km/h
285 27-08-2021 20:00:00 15.34167 C 11.53 g/m*3 15.34 C 5.1 km/h
286 27-08-2021 21:00:00 14.81667 C 11.53 g/m*3 14.82 C 2.53333 km/h
287 27-08-2021 22:00:00 14.45 C 11.45 g/m*3 14.45 C 1.06667 km/h
288 27-08-2021 23:00:00 14.4 C 11.55 g/m*3 14.4 C 0.53333 km/h
289 28-08-2021 00:00:00 14.5 C 11.69 g/m*3 14.5 C 3.33333 km/h
290 28-08-2021 01:00:00 14.39167 C 11.64 g/m*3 14.39 C 2.4 km/h
291 28-08-2021 02:00:00 14.15 C 11.56 g/m*3 14.15 C 2.68333 km/h
292 28-08-2021 03:00:00 13.95 C 11.47 g/m*3 13.95 C 0.66667 km/h
293 28-08-2021 04:00:00 14.1 C 11.65 g/m*3 14.1 C 4.41667 km/h
294 28-08-2021 05:00:00 13.99167 C 11.57 g/m*3 13.99 C 2.26667 km/h
295 28-08-2021 06:00:00 13.95 C 11.54 g/m*3 13.95 C 1.74167 km/h
296 28-08-2021 07:00:00 14.04167 C 11.61 g/m*3 14.04 C 0 km/h
297 28-08-2021 08:00:00 14.16667 C 11.7 g/m*3 14.17 C 0 km/h
298 28-08-2021 09:00:00 14.59167 C 12.07 g/m*3 14.59 C 0 km/h
299 28-08-2021 10:00:00 14.86667 C 12.23 g/m*3 14.87 C 0.53333 km/h
300 28-08-2021 11:00:00 14.8 C 12.15 g/m*3 14.8 C 1.2 km/h
Sensor: Nr:Datum:Temp:Abs-Feuchte:Windchill:Wind:
Aussen-T/F 301 28-08-2021 12:00:00 14.76667 C 12.13 g/m*3 14.77 C 2 km/h
302 28-08-2021 13:00:00 15.25833 C 12.5 g/m*3 15.26 C 0.4 km/h
303 28-08-2021 14:00:00 15.64167 C 12.7 g/m*3 15.64 C 0.13333 km/h
304 28-08-2021 15:00:00 15.94167 C 12.89 g/m*3 15.94 C 0 km/h
305 28-08-2021 16:00:00 17.9 C 13.72 g/m*3 17.9 C 2 km/h
306 28-08-2021 17:00:00 19.94167 C 14.09 g/m*3 19.94 C 1.73333 km/h
307 28-08-2021 18:00:00 18.70833 C 13.86 g/m*3 18.71 C 2.26667 km/h
308 28-08-2021 19:00:00 17.56667 C 13.52 g/m*3 17.57 C 2.66667 km/h
309 28-08-2021 20:00:00 16.33333 C 12.78 g/m*3 16.33 C 3.075 km/h
310 28-08-2021 21:00:00 16.06667 C 12.6 g/m*3 16.07 C 3.46667 km/h
311 28-08-2021 22:00:00 15.66667 C 12.48 g/m*3 15.67 C 2.53333 km/h
312 28-08-2021 23:00:00 15.425 C 12.39 g/m*3 15.43 C 3.225 km/h
313 29-08-2021 00:00:00 15.25 C 12.37 g/m*3 15.25 C 3.875 km/h
314 29-08-2021 01:00:00 15.075 C 12.24 g/m*3 15.08 C 1.33333 km/h
315 29-08-2021 02:00:00 14.84167 C 12.06 g/m*3 14.84 C 2.4 km/h
316 29-08-2021 03:00:00 14.7 C 11.96 g/m*3 14.7 C 5.06667 km/h
317 29-08-2021 04:00:00 14.56667 C 11.77 g/m*3 14.57 C 5.76667 km/h
318 29-08-2021 05:00:00 14.55833 C 11.73 g/m*3 14.56 C 3.625 km/h
319 29-08-2021 06:00:00 14.46667 C 11.67 g/m*3 14.47 C 3.74167 km/h
320 29-08-2021 07:00:00 14.3 C 11.62 g/m*3 14.3 C 5.08333 km/h
321 29-08-2021 08:00:00 14.38333 C 11.61 g/m*3 14.38 C 6.43333 km/h
322 29-08-2021 09:00:00 14.58333 C 11.75 g/m*3 14.58 C 7.39167 km/h
323 29-08-2021 10:00:00 14.95833 C 11.97 g/m*3 14.96 C 8.06667 km/h
324 29-08-2021 11:00:00 15.54167 C 12.25 g/m*3 15.54 C 5.35833 km/h
325 29-08-2021 12:00:00 16.1 C 12.51 g/m*3 16.1 C 7.775 km/h
Sensor: Nr:Datum:Temp:Abs-Feuchte:Windchill:Wind:
Aussen-T/F 326 29-08-2021 13:00:00 15.71667 C 12.4 g/m*3 15.72 C 9.95 km/h
327 29-08-2021 14:00:00 15.6 C 12.38 g/m*3 15.6 C 7.125 km/h
328 29-08-2021 15:00:00 15.69167 C 12.44 g/m*3 15.69 C 9.28333 km/h
329 29-08-2021 16:00:00 16.04167 C 12.66 g/m*3 16.04 C 8.46667 km/h
330 29-08-2021 17:00:00 16.16667 C 12.7 g/m*3 16.17 C 5.625 km/h
331 29-08-2021 18:00:00 16.2 C 12.69 g/m*3 16.2 C 6.16667 km/h
332 29-08-2021 19:00:00 16.15 C 12.73 g/m*3 16.15 C 2.13333 km/h
333 29-08-2021 20:00:00 15.83333 C 12.54 g/m*3 15.83 C 3.73333 km/h
334 29-08-2021 21:00:00 15.78333 C 12.51 g/m*3 15.78 C 2.26667 km/h
335 29-08-2021 22:00:00 15.7 C 12.57 g/m*3 15.7 C 1.06667 km/h
336 29-08-2021 23:00:00 15.65833 C 12.67 g/m*3 15.66 C 1.6 km/h
337 30-08-2021 00:00:00 15.61667 C 12.65 g/m*3 15.62 C 2 km/h
338 30-08-2021 01:00:00 15.7 C 12.8 g/m*3 15.7 C 0.53333 km/h
339 30-08-2021 02:00:00 15.59167 C 12.76 g/m*3 15.59 C 1.73333 km/h
340 30-08-2021 03:00:00 15.43333 C 12.64 g/m*3 15.43 C 3.08333 km/h
341 30-08-2021 04:00:00 15.41667 C 12.63 g/m*3 15.42 C 2.54167 km/h
342 30-08-2021 05:00:00 15.55 C 12.73 g/m*3 15.55 C 3.61667 km/h
343 30-08-2021 06:00:00 15.64167 C 12.73 g/m*3 15.64 C 1.46667 km/h
344 30-08-2021 07:00:00 15.625 C 12.66 g/m*3 15.63 C 3.06667 km/h
345 30-08-2021 08:00:00 15.91429 C 12.74 g/m*3 15.91 C 5.51429 km/h
346 30-08-2021 14:00:00 19.68571 C 12.97 g/m*3 19.69 C 5.51429 km/h
347 30-08-2021 15:00:00 19.83333 C 13.08 g/m*3 19.83 C 4.825 km/h
348 30-08-2021 16:00:00 20 C 13.39 g/m*3 20 C 9.13333 km/h
349 30-08-2021 17:00:00 20.925 C 13.01 g/m*3 20.93 C 12.76667 km/h
350 30-08-2021 18:00:00 20.51667 C 12.84 g/m*3 20.52 C 11.15833 km/h
Sensor: Nr:Datum:Temp:Abs-Feuchte:Windchill:Wind:
Aussen-T/F 351 30-08-2021 19:00:00 19.58333 C 12.78 g/m*3 19.58 C 6.175 km/h
352 30-08-2021 20:00:00 18.43333 C 12.73 g/m*3 18.43 C 2 km/h
353 30-08-2021 21:00:00 16.79167 C 12.63 g/m*3 16.79 C 1.33333 km/h
354 30-08-2021 22:00:00 15.65 C 12.04 g/m*3 15.65 C 2.53333 km/h
355 30-08-2021 23:00:00 14.88333 C 11.8 g/m*3 14.88 C 4.13333 km/h
356 31-08-2021 00:00:00 14.85 C 11.94 g/m*3 14.85 C 1.2 km/h
357 31-08-2021 01:00:00 14.5 C 11.69 g/m*3 14.5 C 0.93333 km/h
358 31-08-2021 02:00:00 13.71667 C 11.15 g/m*3 13.72 C 1.06667 km/h
359 31-08-2021 03:00:00 13.33333 C 11 g/m*3 13.33 C 1.06667 km/h
360 31-08-2021 04:00:00 12.925 C 10.72 g/m*3 12.93 C 1.6 km/h
361 31-08-2021 05:00:00 12.40833 C 10.4 g/m*3 12.41 C 0.53333 km/h
362 31-08-2021 06:00:00 12.15833 C 10.32 g/m*3 12.16 C 0.4 km/h
363 31-08-2021 07:00:00 12.925 C 10.88 g/m*3 12.93 C 0 km/h
364 31-08-2021 08:00:00 13.7 C 11.49 g/m*3 13.7 C 0 km/h
365 31-08-2021 09:00:00 14.79167 C 12.27 g/m*3 14.79 C 0.26667 km/h
366 31-08-2021 10:00:00 15.28333 C 12.33 g/m*3 15.28 C 5.35833 km/h
367 31-08-2021 11:00:00 16.35833 C 12.38 g/m*3 16.36 C 5.21667 km/h
368 31-08-2021 12:00:00 17.54167 C 12.6 g/m*3 17.54 C 7.38333 km/h
369 31-08-2021 13:00:00 18.175 C 12.58 g/m*3 18.18 C 10.225 km/h
370 31-08-2021 14:00:00 18.46667 C 12.51 g/m*3 18.47 C 13.83333 km/h
371 31-08-2021 15:00:00 18.25833 C 12.19 g/m*3 18.26 C 11.55833 km/h
372 31-08-2021 16:00:00 19.75833 C 12.85 g/m*3 19.76 C 8.475 km/h
373 31-08-2021 17:00:00 21.65833 C 12.64 g/m*3 21.66 C 8.73333 km/h
374 31-08-2021 18:00:00 21.56667 C 12.35 g/m*3 21.57 C 10.23333 km/h
375 31-08-2021 19:00:00 20.06667 C 12.43 g/m*3 20.07 C 5.35 km/h
Sensor: Nr:Datum:Temp:Abs-Feuchte:Windchill:Wind:
Aussen-T/F 376 31-08-2021 20:00:00 17.10833 C 11.98 g/m*3 17.11 C 5.35 km/h
377 31-08-2021 21:00:00 15.075 C 11.41 g/m*3 15.08 C 2.4 km/h
378 31-08-2021 22:00:00 14.05 C 11 g/m*3 14.05 C 0.26667 km/h
379 31-08-2021 23:00:00 13.03333 C 10.48 g/m*3 13.03 C 0 km/h
380 01-09-2021 00:00:00 12.25833 C 10.12 g/m*3 12.26 C 0.13333 km/h
381 01-09-2021 01:00:00 12.1 C 10.11 g/m*3 12.1 C 0.13333 km/h
382 01-09-2021 02:00:00 11.675 C 9.92 g/m*3 11.68 C 0.26667 km/h
383 01-09-2021 03:00:00 12.18333 C 10.33 g/m*3 12.18 C 1.86667 km/h
384 01-09-2021 04:00:00 13.09167 C 10.98 g/m*3 13.09 C 0.93333 km/h
385 01-09-2021 05:00:00 13.6 C 11.3 g/m*3 13.6 C 0 km/h
386 01-09-2021 06:00:00 13.51667 C 11.24 g/m*3 13.52 C 0 km/h
387 01-09-2021 07:00:00 13.525 C 11.25 g/m*3 13.53 C 0 km/h
388 01-09-2021 08:00:00 14.2 C 11.73 g/m*3 14.2 C 0 km/h
389 01-09-2021 09:00:00 15.08333 C 12.2 g/m*3 15.08 C 0 km/h
390 01-09-2021 10:00:00 16.05833 C 12.02 g/m*3 16.06 C 2.93333 km/h
391 01-09-2021 11:00:00 16.84167 C 12.19 g/m*3 16.84 C 3.46667 km/h
392 01-09-2021 12:00:00 17.575 C 12.01 g/m*3 17.58 C 4.40833 km/h
393 01-09-2021 13:00:00 18.20833 C 11.57 g/m*3 18.21 C 6.84167 km/h
394 01-09-2021 14:00:00 18.71667 C 11.35 g/m*3 18.72 C 7.65 km/h
395 01-09-2021 15:00:00 18.9 C 11.33 g/m*3 18.9 C 6.85 km/h
396 01-09-2021 16:00:00 18.91667 C 11.65 g/m*3 18.92 C 5.08333 km/h
397 01-09-2021 17:00:00 19.46667 C 11.81 g/m*3 19.47 C 6.575 km/h
398 01-09-2021 18:00:00 18.675 C 11.63 g/m*3 18.68 C 7.51667 km/h
399 01-09-2021 19:00:00 18.00833 C 11.55 g/m*3 18.01 C 6.03333 km/h
400 01-09-2021 20:00:00 15.60833 C 11.18 g/m*3 15.61 C 2.53333 km/h
Sensor: Nr:Datum:Temp:Abs-Feuchte:Windchill:Wind:
Aussen-T/F 401 01-09-2021 21:00:00 13.6 C 10.6 g/m*3 13.6 C 1.33333 km/h
402 01-09-2021 22:00:00 13.20833 C 10.66 g/m*3 13.21 C 1.33333 km/h
403 01-09-2021 23:00:00 12.73333 C 10.42 g/m*3 12.73 C 0.8 km/h
404 02-09-2021 00:00:00 11.98333 C 9.91 g/m*3 11.98 C 0 km/h
405 02-09-2021 01:00:00 11.03333 C 9.42 g/m*3 11.03 C 0 km/h
406 02-09-2021 02:00:00 10.50833 C 9.18 g/m*3 10.51 C 0 km/h
407 02-09-2021 03:00:00 10.49167 C 9.23 g/m*3 10.49 C 0 km/h
408 02-09-2021 04:00:00 11.15833 C 9.71 g/m*3 11.16 C 0 km/h
409 02-09-2021 05:00:00 11.59167 C 9.97 g/m*3 11.59 C 0.26667 km/h
410 02-09-2021 06:00:00 11.39167 C 9.85 g/m*3 11.39 C 1.06667 km/h
411 02-09-2021 07:00:00 11.25 C 9.76 g/m*3 11.25 C 0.66667 km/h
412 02-09-2021 08:00:00 11.49167 C 10.01 g/m*3 11.49 C 0.4 km/h
413 02-09-2021 09:00:00 11.96667 C 10.32 g/m*3 11.97 C 1.06667 km/h
414 02-09-2021 10:00:00 12.89167 C 10.91 g/m*3 12.89 C 1.86667 km/h
415 02-09-2021 11:00:00 13.9 C 11.46 g/m*3 13.9 C 1.73333 km/h
416 02-09-2021 12:00:00 15.65833 C 12.39 g/m*3 15.66 C 1.73333 km/h
417 02-09-2021 13:00:00 18.175 C 13.11 g/m*3 18.18 C 1.86667 km/h
418 02-09-2021 14:00:00 20.41667 C 13.56 g/m*3 20.42 C 4.41667 km/h
419 02-09-2021 15:00:00 22.06667 C 12.71 g/m*3 22.07 C 8.875 km/h
420 02-09-2021 16:00:00 23.44167 C 12.47 g/m*3 23.44 C 7.93333 km/h
421 02-09-2021 17:00:00 25.45 C 13.1 g/m*3 25.45 C 6.45833 km/h
422 02-09-2021 18:00:00 25.28333 C 14.77 g/m*3 25.28 C 3.34167 km/h
423 02-09-2021 19:00:00 21.275 C 13.77 g/m*3 21.28 C 3.33333 km/h
424 02-09-2021 20:00:00 17.75833 C 12.44 g/m*3 17.76 C 3.6 km/h
425 02-09-2021 21:00:00 16.225 C 11.99 g/m*3 16.23 C 3.075 km/h
Sensor: Nr:Datum:Temp:Abs-Feuchte:Windchill:Wind:
Aussen-T/F 426 02-09-2021 22:00:00 14.675 C 11.25 g/m*3 14.68 C 0 km/h
427 02-09-2021 23:00:00 13.675 C 10.91 g/m*3 13.68 C 0.13333 km/h
428 03-09-2021 00:00:00 12.95833 C 10.54 g/m*3 12.96 C 0 km/h
429 03-09-2021 01:00:00 12.34167 C 10.22 g/m*3 12.34 C 0 km/h
430 03-09-2021 02:00:00 11.83333 C 9.96 g/m*3 11.83 C 0 km/h
431 03-09-2021 03:00:00 11.3 C 9.69 g/m*3 11.3 C 0 km/h
432 03-09-2021 04:00:00 10.825 C 9.4 g/m*3 10.83 C 0 km/h
433 03-09-2021 05:00:00 10.66667 C 9.36 g/m*3 10.67 C 0 km/h
434 03-09-2021 06:00:00 11.20833 C 9.74 g/m*3 11.21 C 0 km/h
435 03-09-2021 07:00:00 11.59167 C 9.97 g/m*3 11.59 C 0.66667 km/h
436 03-09-2021 08:00:00 11.61667 C 10.03 g/m*3 11.62 C 0.13333 km/h
437 03-09-2021 09:00:00 12.2 C 10.47 g/m*3 12.2 C 0.8 km/h
438 03-09-2021 10:00:00 13.29 C 11.2 g/m*3 13.29 C 0.64 km/h
439 03-09-2021 15:00:00 23.01111 C 13.39 g/m*3 23.01 C 5.17778 km/h
440 03-09-2021 16:00:00 24.125 C 13.44 g/m*3 24.13 C 4.55 km/h
441 03-09-2021 17:00:00 26.8 C 15.19 g/m*3 26.8 C 2.4 km/h
442 03-09-2021 18:00:00 24.64167 C 15.13 g/m*3 24.64 C 4.8 km/h
443 03-09-2021 19:00:00 21.71667 C 13.62 g/m*3 21.72 C 5.475 km/h
444 03-09-2021 20:00:00 18.45 C 12.42 g/m*3 18.45 C 2.13333 km/h
445 03-09-2021 21:00:00 16.325 C 12.03 g/m*3 16.33 C 0 km/h
446 03-09-2021 22:00:00 15.04167 C 11.51 g/m*3 15.04 C 0 km/h
447 03-09-2021 23:00:00 13.925 C 10.95 g/m*3 13.93 C 0 km/h
448 04-09-2021 00:00:00 13.15 C 10.61 g/m*3 13.15 C 0 km/h
449 04-09-2021 01:00:00 12.625 C 10.38 g/m*3 12.63 C 0 km/h
450 04-09-2021 02:00:00 12.225 C 10.16 g/m*3 12.23 C 0 km/h
Sensor: Nr:Datum:Temp:Abs-Feuchte:Windchill:Wind:
Aussen-T/F 451 04-09-2021 03:00:00 11.60833 C 9.81 g/m*3 11.61 C 0 km/h
452 04-09-2021 04:00:00 11.3 C 9.69 g/m*3 11.3 C 0 km/h
453 04-09-2021 05:00:00 10.925 C 9.46 g/m*3 10.93 C 0 km/h
454 04-09-2021 06:00:00 10.49167 C 9.23 g/m*3 10.49 C 0 km/h
455 04-09-2021 07:00:00 10.44167 C 9.28 g/m*3 10.44 C 0.26667 km/h
456 04-09-2021 08:00:00 11.30833 C 9.87 g/m*3 11.31 C 0.13333 km/h
457 04-09-2021 09:00:00 12.01667 C 10.35 g/m*3 12.02 C 0.66667 km/h
458 04-09-2021 10:00:00 13.14167 C 11.1 g/m*3 13.14 C 0 km/h
459 04-09-2021 11:00:00 15.10833 C 12.56 g/m*3 15.11 C 0 km/h
460 04-09-2021 12:00:00 17.03333 C 14.04 g/m*3 17.03 C 0 km/h
461 04-09-2021 13:00:00 19.60833 C 14.38 g/m*3 19.61 C 3.49167 km/h
462 04-09-2021 14:00:00 23.025 C 13.31 g/m*3 23.03 C 6.01667 km/h
463 04-09-2021 15:00:00 23.80833 C 12.93 g/m*3 23.81 C 2.80833 km/h
464 04-09-2021 16:00:00 24.69167 C 14.12 g/m*3 24.69 C 2.26667 km/h
465 04-09-2021 17:00:00 27.48333 C 15.86 g/m*3 27.48 C 1.86667 km/h
466 04-09-2021 18:00:00 26.16667 C 15.81 g/m*3 26.17 C 2.8 km/h
467 04-09-2021 19:00:00 22.375 C 14.51 g/m*3 22.38 C 3.73333 km/h
468 04-09-2021 20:00:00 19.025 C 13.15 g/m*3 19.02 C 6.425 km/h
469 04-09-2021 21:00:00 17.86667 C 13.12 g/m*3 17.87 C 4 km/h
470 04-09-2021 22:00:00 17 C 12.77 g/m*3 17 C 0.93333 km/h
471 04-09-2021 23:00:00 15.84167 C 12.28 g/m*3 15.84 C 0 km/h
472 05-09-2021 00:00:00 15.06667 C 11.91 g/m*3 15.07 C 0.66667 km/h
473 05-09-2021 01:00:00 14.475 C 11.57 g/m*3 14.48 C 0.13333 km/h
474 05-09-2021 02:00:00 13.9 C 11.26 g/m*3 13.9 C 0 km/h
475 05-09-2021 03:00:00 13.35833 C 10.93 g/m*3 13.36 C 0 km/h
Sensor: Nr:Datum:Temp:Abs-Feuchte:Windchill:Wind:
Aussen-T/F 476 05-09-2021 04:00:00 12.86667 C 10.68 g/m*3 12.87 C 0 km/h
477 05-09-2021 05:00:00 12.48333 C 10.43 g/m*3 12.48 C 0 km/h
478 05-09-2021 06:00:00 12.00833 C 10.13 g/m*3 12.01 C 0 km/h
479 05-09-2021 07:00:00 11.81667 C 10.09 g/m*3 11.82 C 0 km/h
480 05-09-2021 08:00:00 12.18333 C 10.35 g/m*3 12.18 C 0 km/h
481 05-09-2021 09:00:00 12.95833 C 10.93 g/m*3 12.96 C 0 km/h
482 05-09-2021 10:00:00 14.45833 C 12.03 g/m*3 14.46 C 0.13333 km/h
483 05-09-2021 11:00:00 16.075 C 13.28 g/m*3 16.08 C 0.13333 km/h
484 05-09-2021 12:00:00 17.60833 C 14.43 g/m*3 17.61 C 0 km/h
485 05-09-2021 13:00:00 19.84167 C 15.17 g/m*3 19.84 C 0.8 km/h
486 05-09-2021 14:00:00 21.30833 C 15.39 g/m*3 21.31 C 1.73333 km/h
487 05-09-2021 15:00:00 22.89167 C 15.73 g/m*3 22.89 C 0.93333 km/h
488 05-09-2021 16:00:00 23.79167 C 15.48 g/m*3 23.79 C 1.33333 km/h
489 05-09-2021 17:00:00 25.96667 C 16.61 g/m*3 25.97 C 1.33333 km/h
490 05-09-2021 18:00:00 24.91667 C 15.77 g/m*3 24.92 C 3.73333 km/h
491 05-09-2021 19:00:00 22.14167 C 14.24 g/m*3 22.14 C 4.8 km/h
492 05-09-2021 20:00:00 18.56667 C 12.59 g/m*3 18.57 C 3.48333 km/h
493 05-09-2021 21:00:00 16.625 C 11.83 g/m*3 16.63 C 0 km/h
494 05-09-2021 22:00:00 15.63333 C 11.77 g/m*3 15.63 C 0 km/h
495 05-09-2021 23:00:00 14.9 C 11.58 g/m*3 14.9 C 0 km/h
496 06-09-2021 00:00:00 14.35 C 11.32 g/m*3 14.35 C 0 km/h
497 06-09-2021 01:00:00 13.93333 C 11.2 g/m*3 13.93 C 0 km/h
498 06-09-2021 02:00:00 13.38333 C 10.91 g/m*3 13.38 C 0 km/h
499 06-09-2021 03:00:00 12.94167 C 10.67 g/m*3 12.94 C 0 km/h
500 06-09-2021 04:00:00 12.625 C 10.53 g/m*3 12.63 C 0 km/h
Sensor: Nr:Datum:Temp:Abs-Feuchte:Windchill:Wind:
Aussen-T/F 501 06-09-2021 05:00:00 12.325 C 10.33 g/m*3 12.33 C 0 km/h
502 06-09-2021 06:00:00 12.08333 C 10.2 g/m*3 12.08 C 0 km/h
503 06-09-2021 07:00:00 11.85 C 10.14 g/m*3 11.85 C 0 km/h
504 06-09-2021 08:00:00 12.35 C 10.48 g/m*3 12.35 C 0 km/h
505 06-09-2021 09:00:00 13.01667 C 10.95 g/m*3 13.02 C 0 km/h
506 06-09-2021 10:00:00 14.55 C 12.1 g/m*3 14.55 C 0 km/h
507 06-09-2021 11:00:00 15.98889 C 13.21 g/m*3 15.99 C 0.17778 km/h
508 06-09-2021 12:00:00 17.35 C 14.23 g/m*3 17.35 C 0 km/h
509 06-09-2021 13:00:00 19.38333 C 14.7 g/m*3 19.38 C 0 km/h
510 06-09-2021 14:00:00 21.975 C 15.02 g/m*3 21.98 C 0.4 km/h
511 06-09-2021 15:00:00 23.88333 C 15.65 g/m*3 23.88 C 3.08333 km/h
512 06-09-2021 16:00:00 24.53333 C 16.09 g/m*3 24.53 C 3.34167 km/h
513 06-09-2021 17:00:00 27.54167 C 15.29 g/m*3 27.54 C 4.4 km/h
514 06-09-2021 18:00:00 26.08333 C 15.57 g/m*3 26.08 C 3.34167 km/h
515 06-09-2021 19:00:00 21.51667 C 14.88 g/m*3 21.52 C 4.66667 km/h
516 06-09-2021 20:00:00 19.36667 C 13.96 g/m*3 19.37 C 3.33333 km/h
517 06-09-2021 21:00:00 18.425 C 13.63 g/m*3 18.43 C 0.93333 km/h
518 06-09-2021 22:00:00 17.00833 C 12.96 g/m*3 17.01 C 0.53333 km/h
519 06-09-2021 23:00:00 15.825 C 12.34 g/m*3 15.83 C 0 km/h
520 07-09-2021 00:00:00 14.85833 C 11.82 g/m*3 14.86 C 0 km/h
521 07-09-2021 01:00:00 14 C 11.31 g/m*3 14 C 0 km/h
522 07-09-2021 02:00:00 13.50833 C 11.06 g/m*3 13.51 C 0 km/h
523 07-09-2021 03:00:00 13 C 10.77 g/m*3 13 C 0 km/h
524 07-09-2021 04:00:00 13.1 C 10.94 g/m*3 13.1 C 0.13333 km/h
525 07-09-2021 05:00:00 12.93333 C 10.82 g/m*3 12.93 C 0 km/h
Sensor: Nr:Datum:Temp:Abs-Feuchte:Windchill:Wind:
Aussen-T/F 526 07-09-2021 06:00:00 12.325 C 10.42 g/m*3 12.33 C 0 km/h
527 07-09-2021 07:00:00 12.49167 C 10.57 g/m*3 12.49 C 0 km/h
528 07-09-2021 08:00:00 13.175 C 11.11 g/m*3 13.18 C 0.53333 km/h
529 07-09-2021 09:00:00 13.85 C 11.59 g/m*3 13.85 C 0.26667 km/h
530 07-09-2021 10:00:00 16.98182 C 13.65 g/m*3 16.98 C 0 km/h
531 07-09-2021 11:00:00 20.225 C 14.67 g/m*3 20.23 C 0 km/h
532 07-09-2021 13:00:00 21.55455 C 14.74 g/m*3 21.55 C 0 km/h
533 07-09-2021 14:00:00 22.5 C 13.98 g/m*3 22.5 C 1.06667 km/h
534 07-09-2021 15:00:00 23.99167 C 13.75 g/m*3 23.99 C 0.66667 km/h
535 07-09-2021 16:00:00 24.625 C 15.25 g/m*3 24.63 C 0 km/h
536 07-09-2021 17:00:00 26.04167 C 16.88 g/m*3 26.04 C 0 km/h
537 07-09-2021 18:00:00 23.98333 C 16.37 g/m*3 23.98 C 0 km/h
538 07-09-2021 19:00:00 21.15 C 14.57 g/m*3 21.15 C 0 km/h
539 07-09-2021 20:00:00 18.71667 C 13.21 g/m*3 18.72 C 3.6 km/h
540 07-09-2021 21:00:00 17.46667 C 12.66 g/m*3 17.47 C 3.86667 km/h
541 07-09-2021 22:00:00 16.56667 C 12.32 g/m*3 16.57 C 2.66667 km/h
542 07-09-2021 23:00:00 15.85833 C 11.97 g/m*3 15.86 C 1.06667 km/h
543 08-09-2021 00:00:00 15.09167 C 11.56 g/m*3 15.09 C 0 km/h
544 08-09-2021 01:00:00 14.21667 C 11.19 g/m*3 14.22 C 0 km/h
545 08-09-2021 02:00:00 13.675 C 11.01 g/m*3 13.68 C 0 km/h
546 08-09-2021 03:00:00 13.23333 C 10.82 g/m*3 13.23 C 0 km/h
547 08-09-2021 04:00:00 12.78333 C 10.54 g/m*3 12.78 C 0 km/h
548 08-09-2021 05:00:00 12.425 C 10.4 g/m*3 12.43 C 0 km/h
549 08-09-2021 06:00:00 12.03333 C 10.15 g/m*3 12.03 C 0 km/h
550 08-09-2021 07:00:00 11.81667 C 10.05 g/m*3 11.82 C 0 km/h
Sensor: Nr:Datum:Temp:Abs-Feuchte:Windchill:Wind:
Aussen-T/F 551 08-09-2021 08:00:00 12.14167 C 10.32 g/m*3 12.14 C 0 km/h
552 08-09-2021 09:00:00 12.93333 C 10.88 g/m*3 12.93 C 0 km/h
553 08-09-2021 10:00:00 13.96 C 11.67 g/m*3 13.96 C 0 km/h
554 08-09-2021 11:00:00 16.775 C 13.81 g/m*3 16.77 C 1.4125 km/h
555 08-09-2021 12:00:00 18.575 C 14.57 g/m*3 18.58 C 2.14167 km/h
556 08-09-2021 13:00:00 21.35 C 14.86 g/m*3 21.35 C 2 km/h
557 08-09-2021 14:00:00 23.725 C 13.42 g/m*3 23.73 C 7.525 km/h
558 08-09-2021 15:00:00 25.03333 C 12.63 g/m*3 25.03 C 8.325 km/h
559 08-09-2021 16:00:00 25.70833 C 13.05 g/m*3 25.71 C 5.49167 km/h
560 08-09-2021 17:00:00 27.75833 C 15.27 g/m*3 27.76 C 2.275 km/h
561 08-09-2021 18:00:00 25.71667 C 15.14 g/m*3 25.72 C 2.13333 km/h
562 08-09-2021 19:00:00 21.96667 C 13.71 g/m*3 21.97 C 4.14167 km/h
563 08-09-2021 20:00:00 18.925 C 12.64 g/m*3 18.93 C 3.74167 km/h
564 08-09-2021 21:00:00 16.95 C 12.11 g/m*3 16.95 C 1.06667 km/h
565 08-09-2021 22:00:00 15.74167 C 11.74 g/m*3 15.74 C 0 km/h
566 08-09-2021 23:00:00 14.81667 C 11.37 g/m*3 14.82 C 0 km/h
567 09-09-2021 00:00:00 14.15833 C 11.18 g/m*3 14.16 C 0 km/h
568 09-09-2021 01:00:00 13.73333 C 10.98 g/m*3 13.73 C 0 km/h
569 09-09-2021 02:00:00 13.33333 C 10.83 g/m*3 13.33 C 0 km/h
570 09-09-2021 03:00:00 13.29167 C 10.88 g/m*3 13.29 C 0 km/h
571 09-09-2021 04:00:00 12.975 C 10.69 g/m*3 12.98 C 0 km/h
572 09-09-2021 05:00:00 12.59167 C 10.5 g/m*3 12.59 C 0 km/h
573 09-09-2021 06:00:00 12.475 C 10.43 g/m*3 12.48 C 0 km/h
574 09-09-2021 07:00:00 12.33 C 10.39 g/m*3 12.33 C 0 km/h
575 09-09-2021 08:00:00 12.93333 C 10.84 g/m*3 12.93 C 0.4 km/h
Sensor: Nr:Datum:Temp:Abs-Feuchte:Windchill:Wind:
Aussen-T/F 576 09-09-2021 09:00:00 13.85 C 11.56 g/m*3 13.85 C 0 km/h
577 09-09-2021 10:00:00 15.28333 C 12.65 g/m*3 15.28 C 0.93333 km/h
578 09-09-2021 11:00:00 17.84167 C 14.76 g/m*3 17.84 C 1.46667 km/h
579 09-09-2021 12:00:00 21.25 C 15.81 g/m*3 21.25 C 9.15 km/h
580 09-09-2021 13:00:00 23.14167 C 15.97 g/m*3 23.14 C 6.58333 km/h
581 09-09-2021 14:00:00 24.46667 C 16.68 g/m*3 24.47 C 5.24167 km/h
582 09-09-2021 15:00:00 24.94167 C 16.94 g/m*3 24.94 C 8.05 km/h
583 09-09-2021 16:00:00 25.84167 C 16.81 g/m*3 25.84 C 13.03333 km/h
584 09-09-2021 17:00:00 25.61667 C 16.78 g/m*3 25.62 C 9.675 km/h
585 09-09-2021 18:00:00 24.275 C 17 g/m*3 24.28 C 4.55 km/h
586 09-09-2021 19:00:00 21.98333 C 16.27 g/m*3 21.98 C 2.8 km/h
587 09-09-2021 20:00:00 20.46667 C 15.63 g/m*3 20.47 C 2.13333 km/h
588 09-09-2021 21:00:00 19.55 C 15.23 g/m*3 19.55 C 0.93333 km/h
589 09-09-2021 22:00:00 19.33333 C 15.36 g/m*3 19.33 C 0 km/h
590 09-09-2021 23:00:00 19.25833 C 15.39 g/m*3 19.26 C 0 km/h
591 10-09-2021 00:00:00 18.61667 C 14.78 g/m*3 18.62 C 0 km/h
592 10-09-2021 01:00:00 18.26667 C 14.66 g/m*3 18.27 C 0 km/h
593 10-09-2021 02:00:00 18.4 C 14.93 g/m*3 18.4 C 0 km/h
594 10-09-2021 03:00:00 18.30833 C 14.86 g/m*3 18.31 C 0 km/h
595 10-09-2021 04:00:00 18.21667 C 14.78 g/m*3 18.22 C 0.4 km/h
596 10-09-2021 05:00:00 18.21667 C 14.78 g/m*3 18.22 C 0 km/h
597 10-09-2021 06:00:00 18.16667 C 14.74 g/m*3 18.17 C 0.13333 km/h
598 10-09-2021 07:00:00 18.275 C 14.84 g/m*3 18.27 C 0.53333 km/h
599 10-09-2021 08:00:00 18.725 C 15.39 g/m*3 18.73 C 0 km/h
600 10-09-2021 09:00:00 19.46667 C 16.08 g/m*3 19.47 C 0.13333 km/h
Sensor: Nr:Datum:Temp:Abs-Feuchte:Windchill:Wind:
Aussen-T/F 601 10-09-2021 10:00:00 20.01667 C 16.04 g/m*3 20.02 C 3.2 km/h
602 10-09-2021 11:00:00 21.30833 C 16.29 g/m*3 21.31 C 5.75 km/h
603 10-09-2021 12:00:00 22.80833 C 16.48 g/m*3 22.81 C 9.15 km/h
604 10-09-2021 13:00:00 22.85 C 16.29 g/m*3 22.85 C 9.95 km/h
605 10-09-2021 14:00:00 23.25833 C 16.36 g/m*3 23.26 C 6.3 km/h
606 10-09-2021 15:00:00 23.96667 C 16.54 g/m*3 23.97 C 5.08333 km/h
607 10-09-2021 16:00:00 23.49167 C 16.82 g/m*3 23.49 C 4.95833 km/h
608 10-09-2021 17:00:00 24.43333 C 16.59 g/m*3 24.43 C 6.975 km/h
609 10-09-2021 18:00:00 23.01667 C 15.89 g/m*3 23.02 C 4.83333 km/h
610 10-09-2021 19:00:00 21.31667 C 15.66 g/m*3 21.32 C 6.84167 km/h
611 10-09-2021 20:00:00 20 C 15.19 g/m*3 20 C 4.94167 km/h
612 10-09-2021 21:00:00 19.525 C 14.97 g/m*3 19.52 C 5.63333 km/h
613 10-09-2021 22:00:00 18.83333 C 14.62 g/m*3 18.83 C 5.08333 km/h
614 10-09-2021 23:00:00 18.16667 C 14.26 g/m*3 18.17 C 0.53333 km/h
615 11-09-2021 00:00:00 17.86667 C 14.17 g/m*3 17.87 C 0.13333 km/h
616 11-09-2021 01:00:00 17.89167 C 14.31 g/m*3 17.89 C 2.95 km/h
617 11-09-2021 02:00:00 18.15833 C 14.42 g/m*3 18.16 C 2.13333 km/h
618 11-09-2021 03:00:00 17.81667 C 14.12 g/m*3 17.82 C 0.26667 km/h
619 11-09-2021 04:00:00 17.75 C 14.22 g/m*3 17.75 C 0 km/h
620 11-09-2021 05:00:00 17.61667 C 14.12 g/m*3 17.62 C 1.2 km/h
621 11-09-2021 06:00:00 17.825 C 14.35 g/m*3 17.83 C 1.86667 km/h
622 11-09-2021 07:00:00 17.83333 C 14.3 g/m*3 17.83 C 1.06667 km/h
623 11-09-2021 08:00:00 18.16667 C 14.44 g/m*3 18.17 C 3.48333 km/h
624 11-09-2021 09:00:00 18.14167 C 14.42 g/m*3 18.14 C 0.13333 km/h
625 11-09-2021 10:00:00 18.4 C 14.47 g/m*3 18.4 C 0.26667 km/h
Sensor: Nr:Datum:Temp:Abs-Feuchte:Windchill:Wind:
Aussen-T/F 626 11-09-2021 11:00:00 18.85833 C 14.6 g/m*3 18.86 C 1.6 km/h
627 11-09-2021 12:00:00 20.275 C 15.59 g/m*3 20.27 C 0.4 km/h
628 11-09-2021 13:00:00 20.93333 C 15.19 g/m*3 20.93 C 1.06667 km/h
629 11-09-2021 14:00:00 21.20833 C 15.48 g/m*3 21.21 C 2.69167 km/h
630 11-09-2021 15:00:00 22.39167 C 13.98 g/m*3 22.39 C 6.15833 km/h
631 11-09-2021 16:00:00 22.38333 C 13.87 g/m*3 22.38 C 5.35 km/h
632 11-09-2021 17:00:00 22.06667 C 14.29 g/m*3 22.07 C 2 km/h
633 11-09-2021 18:00:00 22.46667 C 14.6 g/m*3 22.47 C 0.53333 km/h
634 11-09-2021 19:00:00 21.65833 C 13.31 g/m*3 21.66 C 2.80833 km/h
635 11-09-2021 20:00:00 18.23333 C 12.58 g/m*3 18.23 C 2.13333 km/h
636 11-09-2021 21:00:00 16.49167 C 12.09 g/m*3 16.49 C 4.4 km/h
637 11-09-2021 22:00:00 15.55833 C 11.86 g/m*3 15.56 C 1.2 km/h
638 11-09-2021 23:00:00 14.86667 C 11.65 g/m*3 14.87 C 0 km/h
639 12-09-2021 00:00:00 15.05833 C 11.97 g/m*3 15.06 C 0 km/h
640 12-09-2021 01:00:00 15.54167 C 12.06 g/m*3 15.54 C 3.60833 km/h
641 12-09-2021 02:00:00 15.09167 C 11.64 g/m*3 15.09 C 1.06667 km/h
642 12-09-2021 03:00:00 13.95 C 11.07 g/m*3 13.95 C 0 km/h
643 12-09-2021 04:00:00 13.325 C 10.84 g/m*3 13.33 C 0 km/h
644 12-09-2021 05:00:00 12.74167 C 10.5 g/m*3 12.74 C 0 km/h
645 12-09-2021 06:00:00 12.20833 C 10.24 g/m*3 12.21 C 0.66667 km/h
646 12-09-2021 07:00:00 11.95 C 10.12 g/m*3 11.95 C 0.13333 km/h
647 12-09-2021 08:00:00 13.00833 C 10.89 g/m*3 13.01 C 0.4 km/h
648 12-09-2021 09:00:00 14.15 C 11.63 g/m*3 14.15 C 2.275 km/h
649 12-09-2021 10:00:00 16.025 C 12.3 g/m*3 16.02 C 3.46667 km/h
650 12-09-2021 11:00:00 17.55 C 12.6 g/m*3 17.55 C 5.35 km/h
Sensor: Nr:Datum:Temp:Abs-Feuchte:Windchill:Wind:
Aussen-T/F 651 12-09-2021 12:00:00 18.90833 C 12.89 g/m*3 18.91 C 1.33333 km/h
652 12-09-2021 13:00:00 20.21667 C 12.25 g/m*3 20.22 C 3.20833 km/h
653 12-09-2021 14:00:00 21.6 C 11.55 g/m*3 21.6 C 7.38333 km/h
654 12-09-2021 15:00:00 22.325 C 11.67 g/m*3 22.33 C 7.925 km/h
655 12-09-2021 16:00:00 22.11667 C 12.98 g/m*3 22.12 C 2.13333 km/h
656 12-09-2021 17:00:00 23 C 13.03 g/m*3 23 C 4.575 km/h
657 12-09-2021 18:00:00 23.04167 C 12.79 g/m*3 23.04 C 3.075 km/h
658 12-09-2021 19:00:00 19.49167 C 12.87 g/m*3 19.49 C 2.675 km/h
659 12-09-2021 20:00:00 16.8 C 11.84 g/m*3 16.8 C 3.46667 km/h
660 12-09-2021 21:00:00 15.5 C 11.4 g/m*3 15.5 C 3.46667 km/h
661 12-09-2021 22:00:00 14.63333 C 11.1 g/m*3 14.63 C 0.66667 km/h
662 12-09-2021 23:00:00 13.59167 C 10.62 g/m*3 13.59 C 0 km/h
663 13-09-2021 00:00:00 12.725 C 10.28 g/m*3 12.73 C 0 km/h
664 13-09-2021 01:00:00 12.2 C 10.05 g/m*3 12.2 C 0 km/h
665 13-09-2021 02:00:00 11.73333 C 9.85 g/m*3 11.73 C 0 km/h
666 13-09-2021 03:00:00 11.23333 C 9.57 g/m*3 11.23 C 0.13333 km/h
667 13-09-2021 04:00:00 10.84167 C 9.41 g/m*3 10.84 C 0 km/h
668 13-09-2021 05:00:00 10.45 C 9.18 g/m*3 10.45 C 0 km/h
669 13-09-2021 06:00:00 10.09167 C 8.98 g/m*3 10.09 C 0 km/h
670 13-09-2021 07:00:00 10.375 C 9.24 g/m*3 10.38 C 0 km/h
671 13-09-2021 08:00:00 11.1 C 9.69 g/m*3 11.1 C 0.53333 km/h
672 13-09-2021 09:00:00 11.7 C 10.1 g/m*3 11.7 C 0.53333 km/h
673 13-09-2021 10:00:00 12.55 C 10.7 g/m*3 12.55 C 1.46667 km/h
674 13-09-2021 11:00:00 13.83333 C 11.57 g/m*3 13.83 C 0.93333 km/h
675 13-09-2021 12:00:00 16.025 C 12.85 g/m*3 16.02 C 0.26667 km/h
Sensor: Nr:Datum:Temp:Abs-Feuchte:Windchill:Wind:
Aussen-T/F 676 13-09-2021 13:00:00 18.60833 C 12.71 g/m*3 18.61 C 2.4 km/h
677 13-09-2021 14:00:00 20.38333 C 12.52 g/m*3 20.38 C 1.46667 km/h
678 13-09-2021 15:00:00 21.50833 C 13.17 g/m*3 21.51 C 2.68333 km/h
679 13-09-2021 16:00:00 21.98333 C 13.69 g/m*3 21.98 C 2.26667 km/h
680 13-09-2021 17:00:00 22.125 C 14.92 g/m*3 22.13 C 0.8 km/h
681 13-09-2021 18:00:00 22.36667 C 14.77 g/m*3 22.37 C 1.86667 km/h
682 13-09-2021 19:00:00 18.375 C 12.56 g/m*3 18.38 C 3.2 km/h
683 13-09-2021 20:00:00 16.175 C 11.77 g/m*3 16.18 C 3.06667 km/h
684 13-09-2021 21:00:00 14.8 C 11.25 g/m*3 14.8 C 0 km/h
685 13-09-2021 22:00:00 13.96667 C 10.92 g/m*3 13.97 C 0 km/h
686 13-09-2021 23:00:00 13.35 C 10.71 g/m*3 13.35 C 0 km/h
687 14-09-2021 00:00:00 13.06667 C 10.64 g/m*3 13.07 C 0 km/h
688 14-09-2021 01:00:00 12.40833 C 10.28 g/m*3 12.41 C 0 km/h
689 14-09-2021 02:00:00 12.11667 C 10.17 g/m*3 12.12 C 0 km/h
690 14-09-2021 03:00:00 11.875 C 10.05 g/m*3 11.88 C 0 km/h
691 14-09-2021 04:00:00 11.71667 C 9.95 g/m*3 11.72 C 0 km/h
692 14-09-2021 05:00:00 11.275 C 9.69 g/m*3 11.28 C 0 km/h
693 14-09-2021 06:00:00 10.90833 C 9.54 g/m*3 10.91 C 0 km/h
694 14-09-2021 07:00:00 11 C 9.62 g/m*3 11 C 0 km/h
695 14-09-2021 08:00:00 11.9 C 10.23 g/m*3 11.9 C 0.26667 km/h
696 14-09-2021 09:00:00 12.775 C 10.85 g/m*3 12.78 C 0.13333 km/h
697 14-09-2021 10:00:00 13.9 C 11.63 g/m*3 13.9 C 0 km/h
698 14-09-2021 11:00:00 15.35 C 12.67 g/m*3 15.35 C 0.13333 km/h
699 14-09-2021 12:00:00 17.45 C 14.17 g/m*3 17.45 C 0.13333 km/h
700 14-09-2021 13:00:00 20.28333 C 15.7 g/m*3 20.28 C 1.86667 km/h
Sensor: Nr:Datum:Temp:Abs-Feuchte:Windchill:Wind:
Aussen-T/F 701 14-09-2021 14:00:00 22 C 16.79 g/m*3 22 C 0.53333 km/h
702 14-09-2021 15:00:00 22.96667 C 17.66 g/m*3 22.97 C 0.8 km/h
703 14-09-2021 16:00:00 23.525 C 18.09 g/m*3 23.53 C 0.66667 km/h
704 14-09-2021 17:00:00 23.53333 C 18.03 g/m*3 23.53 C 0.4 km/h
705 14-09-2021 18:00:00 21.98333 C 16.85 g/m*3 21.98 C 1.86667 km/h
706 14-09-2021 19:00:00 20.35 C 15.99 g/m*3 20.35 C 3.73333 km/h
707 14-09-2021 20:00:00 19.33333 C 15.36 g/m*3 19.33 C 1.73333 km/h
708 14-09-2021 21:00:00 18.925 C 15.1 g/m*3 18.93 C 1.46667 km/h
709 14-09-2021 22:00:00 18.85833 C 15.19 g/m*3 18.86 C 2.13333 km/h
710 14-09-2021 23:00:00 18.68333 C 15.03 g/m*3 18.68 C 0 km/h
711 15-09-2021 00:00:00 18.18333 C 14.6 g/m*3 18.18 C 0.13333 km/h
712 15-09-2021 01:00:00 17.575 C 14.15 g/m*3 17.58 C 0 km/h
713 15-09-2021 02:00:00 17.475 C 14.14 g/m*3 17.48 C 0 km/h
714 15-09-2021 03:00:00 17.5 C 14.24 g/m*3 17.5 C 0 km/h
715 15-09-2021 04:00:00 17.21667 C 14.05 g/m*3 17.22 C 0 km/h
716 15-09-2021 05:00:00 17.46667 C 14.28 g/m*3 17.47 C 0 km/h
717 15-09-2021 06:00:00 17.53333 C 14.34 g/m*3 17.53 C 0 km/h
718 15-09-2021 07:00:00 17.48333 C 14.31 g/m*3 17.48 C 0 km/h
719 15-09-2021 08:00:00 18.04167 C 14.94 g/m*3 18.04 C 0 km/h
720 15-09-2021 09:00:00 18.825 C 15.64 g/m*3 18.83 C 0 km/h
721 15-09-2021 10:00:00 19.50833 C 16.29 g/m*3 19.51 C 0 km/h
722 15-09-2021 11:00:00 20.24167 C 16.93 g/m*3 20.24 C 0 km/h
723 15-09-2021 12:00:00 20.91667 C 17.27 g/m*3 20.92 C 0.26667 km/h
724 15-09-2021 13:00:00 21.43333 C 17.31 g/m*3 21.43 C 4.3 km/h
725 15-09-2021 14:00:00 21.64167 C 17.13 g/m*3 21.64 C 7.11667 km/h
Sensor: Nr:Datum:Temp:Abs-Feuchte:Windchill:Wind:
Aussen-T/F 726 15-09-2021 15:00:00 21.94167 C 17.01 g/m*3 21.94 C 8.2 km/h
727 15-09-2021 16:00:00 22.65833 C 16.95 g/m*3 22.66 C 10.5 km/h
728 15-09-2021 17:00:00 22.49167 C 16.72 g/m*3 22.49 C 7.79167 km/h
729 15-09-2021 18:00:00 20.40833 C 15.84 g/m*3 20.41 C 1.475 km/h
730 15-09-2021 19:00:00 19.48333 C 15.56 g/m*3 19.48 C 0 km/h
731 15-09-2021 20:00:00 18.94167 C 15.25 g/m*3 18.94 C 3.21667 km/h
732 15-09-2021 21:00:00 18.28333 C 14.75 g/m*3 18.28 C 4.825 km/h
733 15-09-2021 22:00:00 17.50833 C 14.15 g/m*3 17.51 C 3.86667 km/h
734 15-09-2021 23:00:00 17.175 C 13.98 g/m*3 17.18 C 2.53333 km/h
735 16-09-2021 00:00:00 17.03333 C 13.92 g/m*3 17.03 C 2.95 km/h
736 16-09-2021 01:00:00 16.69167 C 13.64 g/m*3 16.69 C 2.4 km/h
737 16-09-2021 02:00:00 16.45 C 13.44 g/m*3 16.45 C 0.53333 km/h
738 16-09-2021 03:00:00 16.13333 C 13.19 g/m*3 16.13 C 1.2 km/h
739 16-09-2021 04:00:00 15.70833 C 12.85 g/m*3 15.71 C 1.2 km/h
740 16-09-2021 05:00:00 15.35833 C 12.61 g/m*3 15.36 C 6.175 km/h
741 16-09-2021 06:00:00 15.075 C 12.05 g/m*3 15.08 C 10.21667 km/h
742 16-09-2021 07:00:00 14.575 C 11.51 g/m*3 14.58 C 5.09167 km/h
743 16-09-2021 08:00:00 13.76667 C 11.11 g/m*3 13.77 C 2.53333 km/h
744 16-09-2021 09:00:00 13.75 C 11.17 g/m*3 13.75 C 4.56667 km/h
745 16-09-2021 10:00:00 15.31667 C 11.54 g/m*3 15.32 C 5.625 km/h
746 16-09-2021 11:00:00 16.19167 C 11.66 g/m*3 16.19 C 5.09167 km/h
747 16-09-2021 12:00:00 17.075 C 12.02 g/m*3 17.08 C 3.33333 km/h
748 16-09-2021 13:00:00 17.80833 C 12.19 g/m*3 17.81 C 2.66667 km/h
749 16-09-2021 14:00:00 18.55833 C 12.2 g/m*3 18.56 C 6.16667 km/h
750 16-09-2021 15:00:00 18.80833 C 12.18 g/m*3 18.81 C 5.60833 km/h
Sensor: Nr:Datum:Temp:Abs-Feuchte:Windchill:Wind:
Aussen-T/F 751 16-09-2021 16:00:00 18.88333 C 12.33 g/m*3 18.88 C 6.025 km/h
752 16-09-2021 17:00:00 18.68333 C 12.74 g/m*3 18.68 C 2 km/h
753 16-09-2021 18:00:00 18.45833 C 12.26 g/m*3 18.46 C 3.6 km/h
754 16-09-2021 19:00:00 17.69167 C 12.68 g/m*3 17.69 C 2.66667 km/h
755 16-09-2021 20:00:00 15.625 C 11.67 g/m*3 15.63 C 7.25833 km/h
756 16-09-2021 21:00:00 14.40833 C 11.19 g/m*3 14.41 C 2.13333 km/h
757 16-09-2021 22:00:00 14.00833 C 11.22 g/m*3 14.01 C 0.26667 km/h
758 16-09-2021 23:00:00 13.41667 C 10.9 g/m*3 13.42 C 0.66667 km/h
759 17-09-2021 00:00:00 12.95 C 10.67 g/m*3 12.95 C 0.93333 km/h
760 17-09-2021 01:00:00 12.53333 C 10.42 g/m*3 12.53 C 0.66667 km/h
761 17-09-2021 02:00:00 11.68333 C 9.93 g/m*3 11.68 C 0.13333 km/h
762 17-09-2021 03:00:00 11.18333 C 9.64 g/m*3 11.18 C 0.8 km/h
763 17-09-2021 04:00:00 10.91667 C 9.49 g/m*3 10.92 C 0 km/h
764 17-09-2021 05:00:00 11.10833 C 9.67 g/m*3 11.11 C 0 km/h
765 17-09-2021 06:00:00 11.3 C 9.79 g/m*3 11.3 C 0 km/h
766 17-09-2021 07:00:00 11.16667 C 9.71 g/m*3 11.17 C 0 km/h
767 17-09-2021 08:00:00 11.60833 C 10.06 g/m*3 11.61 C 0 km/h
768 17-09-2021 09:00:00 12.7 C 10.8 g/m*3 12.7 C 0 km/h
769 17-09-2021 10:00:00 13.70833 C 11.36 g/m*3 13.71 C 0 km/h
770 17-09-2021 11:00:00 14.99167 C 11.89 g/m*3 14.99 C 0 km/h
771 17-09-2021 12:00:00 17.01667 C 12.5 g/m*3 17.02 C 0 km/h
772 17-09-2021 13:00:00 18.45833 C 12.77 g/m*3 18.46 C 0.53333 km/h
773 17-09-2021 14:00:00 18.89167 C 12.75 g/m*3 18.89 C 0 km/h
774 17-09-2021 15:00:00 19.29167 C 12.61 g/m*3 19.29 C 0 km/h
775 17-09-2021 16:00:00 19.425 C 13.31 g/m*3 19.43 C 0 km/h
Sensor: Nr:Datum:Temp:Abs-Feuchte:Windchill:Wind:
Aussen-T/F 776 17-09-2021 17:00:00 20.64167 C 13.86 g/m*3 20.64 C 0.26667 km/h
777 17-09-2021 18:00:00 18.98333 C 12.98 g/m*3 18.98 C 5.33333 km/h
778 17-09-2021 19:00:00 16.975 C 12.33 g/m*3 16.98 C 5.75 km/h
779 17-09-2021 20:00:00 15.18333 C 11.44 g/m*3 15.18 C 2.14167 km/h
780 17-09-2021 21:00:00 13.89167 C 10.94 g/m*3 13.89 C 0 km/h
781 17-09-2021 22:00:00 12.96667 C 10.53 g/m*3 12.97 C 0 km/h
782 17-09-2021 23:00:00 12.36667 C 10.26 g/m*3 12.37 C 0.13333 km/h
783 18-09-2021 00:00:00 12.08333 C 10.18 g/m*3 12.08 C 0 km/h
784 18-09-2021 01:00:00 11.86667 C 10.04 g/m*3 11.87 C 0.13333 km/h
785 18-09-2021 02:00:00 11.38333 C 9.76 g/m*3 11.38 C 0 km/h
786 18-09-2021 03:00:00 10.9 C 9.5 g/m*3 10.9 C 0.13333 km/h
787 18-09-2021 04:00:00 11.08333 C 9.66 g/m*3 11.08 C 0.13333 km/h
788 18-09-2021 05:00:00 11.03333 C 9.63 g/m*3 11.03 C 0 km/h
789 18-09-2021 06:00:00 10.81667 C 9.5 g/m*3 10.82 C 0 km/h
790 18-09-2021 07:00:00 10.7 C 9.51 g/m*3 10.7 C 0 km/h
791 18-09-2021 08:00:00 10.8 C 9.59 g/m*3 10.8 C 0 km/h
792 18-09-2021 09:00:00 11.175 C 9.82 g/m*3 11.18 C 0.13333 km/h
793 18-09-2021 10:00:00 11.75833 C 10.18 g/m*3 11.76 C 0 km/h
794 18-09-2021 11:00:00 12.75833 C 10.84 g/m*3 12.76 C 0 km/h
795 18-09-2021 12:00:00 14.76667 C 12.16 g/m*3 14.77 C 0 km/h
796 18-09-2021 13:00:00 16.69167 C 12.87 g/m*3 16.69 C 0 km/h
797 18-09-2021 14:00:00 18.925 C 12.74 g/m*3 18.93 C 0 km/h
798 18-09-2021 15:00:00 20.525 C 12.99 g/m*3 20.53 C 0 km/h
799 18-09-2021 16:00:00 20.94167 C 13.05 g/m*3 20.94 C 0 km/h
800 18-09-2021 17:00:00 21.8 C 14.57 g/m*3 21.8 C 0 km/h
Sensor: Nr:Datum:Temp:Abs-Feuchte:Windchill:Wind:
Aussen-T/F 801 18-09-2021 18:00:00 21.75833 C 14.58 g/m*3 21.76 C 0 km/h
802 18-09-2021 19:00:00 18.08333 C 12.85 g/m*3 18.08 C 0.53333 km/h
803 18-09-2021 20:00:00 15.95833 C 12 g/m*3 15.96 C 1.73333 km/h
804 18-09-2021 21:00:00 15.1 C 11.75 g/m*3 15.1 C 0.4 km/h
805 18-09-2021 22:00:00 14.58333 C 11.56 g/m*3 14.58 C 0.66667 km/h
806 18-09-2021 23:00:00 14.18333 C 11.27 g/m*3 14.18 C 0.66667 km/h
807 19-09-2021 00:00:00 13.275 C 10.68 g/m*3 13.28 C 1.06667 km/h
808 19-09-2021 01:00:00 12.65833 C 10.4 g/m*3 12.66 C 1.46667 km/h
809 19-09-2021 02:00:00 12.28333 C 10.16 g/m*3 12.28 C 1.86667 km/h
810 19-09-2021 03:00:00 11.68333 C 9.83 g/m*3 11.68 C 2.53333 km/h
811 19-09-2021 04:00:00 11.31667 C 9.69 g/m*3 11.32 C 0 km/h
812 19-09-2021 05:00:00 10.76667 C 9.37 g/m*3 10.77 C 0 km/h
813 19-09-2021 06:00:00 10.4 C 9.17 g/m*3 10.4 C 0 km/h
814 19-09-2021 07:00:00 10.125 C 9.05 g/m*3 10.13 C 0 km/h
815 19-09-2021 08:00:00 10.525 C 9.33 g/m*3 10.53 C 0 km/h
816 19-09-2021 09:00:00 12.125 C 10.41 g/m*3 12.13 C 2.01667 km/h
817 19-09-2021 10:00:00 12.91667 C 10.83 g/m*3 12.92 C 1.33333 km/h
818 19-09-2021 11:00:00 14.375 C 11.39 g/m*3 14.38 C 2.94167 km/h
819 19-09-2021 12:00:00 16.8 C 11.43 g/m*3 16.8 C 7.525 km/h
820 19-09-2021 13:00:00 17.65 C 11.26 g/m*3 17.65 C 5.51667 km/h
821 19-09-2021 14:00:00 18.29167 C 11.46 g/m*3 18.29 C 3.73333 km/h
822 19-09-2021 15:00:00 18.8 C 11.5 g/m*3 18.8 C 7.5 km/h
823 19-09-2021 16:00:00 19.01667 C 11.39 g/m*3 19.02 C 9.28333 km/h
824 19-09-2021 17:00:00 19.45 C 11.78 g/m*3 19.45 C 6.3 km/h
825 19-09-2021 18:00:00 19.60833 C 11.87 g/m*3 19.61 C 4.025 km/h
Sensor: Nr:Datum:Temp:Abs-Feuchte:Windchill:Wind:
Aussen-T/F 826 19-09-2021 19:00:00 15.71667 C 10.96 g/m*3 15.72 C 0.4 km/h
827 19-09-2021 20:00:00 13.44167 C 10.08 g/m*3 13.44 C 1.60833 km/h
828 19-09-2021 21:00:00 12.11667 C 9.5 g/m*3 12.12 C 0 km/h
829 19-09-2021 22:00:00 11.04167 C 9.17 g/m*3 11.04 C 0 km/h
830 19-09-2021 23:00:00 11.39167 C 9.56 g/m*3 11.39 C 0 km/h
831 20-09-2021 00:00:00 11.8 C 9.76 g/m*3 11.8 C 0 km/h
832 20-09-2021 01:00:00 12 C 9.71 g/m*3 12 C 0 km/h
833 20-09-2021 02:00:00 12.09167 C 9.6 g/m*3 12.09 C 0.13333 km/h
834 20-09-2021 03:00:00 11.975 C 9.56 g/m*3 11.98 C 0 km/h
835 20-09-2021 04:00:00 11.6 C 9.37 g/m*3 11.6 C 0 km/h
836 20-09-2021 05:00:00 11.30833 C 9.29 g/m*3 11.31 C 0 km/h
837 20-09-2021 06:00:00 11.325 C 9.23 g/m*3 11.33 C 0 km/h
838 20-09-2021 07:00:00 11.45 C 9.28 g/m*3 11.45 C 0 km/h
839 20-09-2021 08:00:00 11.76667 C 9.1 g/m*3 11.77 C 0 km/h
840 20-09-2021 09:00:00 12.54167 C 9.1 g/m*3 12.54 C 0.93333 km/h
841 20-09-2021 10:00:00 12.95 C 9.25 g/m*3 12.95 C 4.40833 km/h
842 20-09-2021 11:00:00 13.79167 C 9.45 g/m*3 13.79 C 7.8 km/h
843 20-09-2021 12:00:00 14.6 C 9.66 g/m*3 14.6 C 8.35 km/h
844 20-09-2021 13:00:00 15.16667 C 9.89 g/m*3 15.17 C 6.84167 km/h
845 20-09-2021 14:00:00 16.04167 C 10.23 g/m*3 16.04 C 7.80833 km/h
846 20-09-2021 15:00:00 16.28333 C 10.34 g/m*3 16.28 C 7.25 km/h
847 20-09-2021 16:00:00 16.26667 C 10.27 g/m*3 16.27 C 4.025 km/h
848 20-09-2021 17:00:00 16.29167 C 10.35 g/m*3 16.29 C 1.73333 km/h
849 20-09-2021 18:00:00 15.93333 C 10.88 g/m*3 15.93 C 0 km/h
850 20-09-2021 19:00:00 14.71667 C 10.48 g/m*3 14.72 C 0 km/h
Sensor: Nr:Datum:Temp:Abs-Feuchte:Windchill:Wind:
Aussen-T/F 851 20-09-2021 20:00:00 13.66667 C 9.9 g/m*3 13.67 C 0 km/h
852 20-09-2021 21:00:00 13.075 C 9.64 g/m*3 13.08 C 0 km/h
853 20-09-2021 22:00:00 12.75833 C 9.47 g/m*3 12.76 C 0 km/h
854 20-09-2021 23:00:00 12.71667 C 9.41 g/m*3 12.72 C 0 km/h
855 21-09-2021 00:00:00 12.25833 C 9.23 g/m*3 12.26 C 0 km/h
856 21-09-2021 01:00:00 12.00833 C 8.95 g/m*3 12.01 C 0.26667 km/h
857 21-09-2021 02:00:00 12.00833 C 8.48 g/m*3 12.01 C 1.6 km/h
858 21-09-2021 03:00:00 12.34167 C 8.45 g/m*3 12.34 C 0 km/h
859 21-09-2021 04:00:00 11.60833 C 8.52 g/m*3 11.61 C 0 km/h
860 21-09-2021 05:00:00 11.06667 C 8.33 g/m*3 11.07 C 0 km/h
861 21-09-2021 06:00:00 9.9 C 7.91 g/m*3 9.9 C 0 km/h
862 21-09-2021 07:00:00 8.94167 C 7.76 g/m*3 8.94 C 0 km/h
863 21-09-2021 08:00:00 8.4 C 7.71 g/m*3 8.4 C 0 km/h
864 21-09-2021 09:00:00 8.40833 C 7.73 g/m*3 8.41 C 0 km/h
865 21-09-2021 10:00:00 9.21667 C 8.27 g/m*3 9.22 C 0 km/h
866 21-09-2021 11:00:00 10.95833 C 8.96 g/m*3 10.96 C 0 km/h
867 21-09-2021 12:00:00 13.90833 C 8.82 g/m*3 13.91 C 1.075 km/h
868 21-09-2021 13:00:00 15.93333 C 8.46 g/m*3 15.93 C 6.575 km/h
869 21-09-2021 14:00:00 16.65 C 8.55 g/m*3 16.65 C 6.84167 km/h
870 21-09-2021 15:00:00 16.64167 C 8.73 g/m*3 16.64 C 4.81667 km/h
871 21-09-2021 16:00:00 16.83333 C 8.54 g/m*3 16.83 C 7.66667 km/h
872 21-09-2021 17:00:00 17.26667 C 9.48 g/m*3 17.27 C 2.4 km/h
873 21-09-2021 18:00:00 16.125 C 10.39 g/m*3 16.13 C 3.875 km/h
874 21-09-2021 19:00:00 13.10833 C 8.99 g/m*3 13.11 C 8.08333 km/h
875 21-09-2021 20:00:00 11.425 C 8.61 g/m*3 11.43 C 2.53333 km/h
Sensor: Nr:Datum:Temp:Abs-Feuchte:Windchill:Wind:
Aussen-T/F 876 21-09-2021 21:00:00 10.10833 C 8.29 g/m*3 10.11 C 0 km/h
877 21-09-2021 22:00:00 9.26667 C 8.1 g/m*3 9.27 C 0 km/h
878 21-09-2021 23:00:00 8.825 C 8 g/m*3 8.82 C 0 km/h
879 22-09-2021 00:00:00 8.44167 C 7.91 g/m*3 8.44 C 0 km/h
880 22-09-2021 01:00:00 8.025 C 7.76 g/m*3 8.03 C 0 km/h
881 22-09-2021 02:00:00 7.71667 C 7.63 g/m*3 7.72 C 0.13333 km/h
882 22-09-2021 03:00:00 7.36667 C 7.51 g/m*3 7.37 C 0 km/h
883 22-09-2021 04:00:00 7.01667 C 7.37 g/m*3 7.02 C 0 km/h
884 22-09-2021 05:00:00 6.775 C 7.25 g/m*3 6.78 C 0.13333 km/h
885 22-09-2021 06:00:00 6.36667 C 7.06 g/m*3 6.37 C 0 km/h
886 22-09-2021 07:00:00 6.10833 C 6.96 g/m*3 6.11 C 0 km/h
887 22-09-2021 08:00:00 6.76667 C 7.33 g/m*3 6.77 C 0 km/h
888 22-09-2021 09:00:00 7.475 C 7.67 g/m*3 7.48 C 0 km/h
889 22-09-2021 10:00:00 8.64167 C 8.32 g/m*3 8.64 C 0 km/h
890 22-09-2021 11:00:00 10.55 C 9.33 g/m*3 10.55 C 0 km/h
891 22-09-2021 12:00:00 12.85833 C 10.19 g/m*3 12.86 C 0 km/h
892 22-09-2021 13:00:00 14.7 C 10.6 g/m*3 14.7 C 0 km/h
893 22-09-2021 14:00:00 16.98333 C 10.81 g/m*3 16.98 C 0 km/h
894 22-09-2021 15:00:00 17.65833 C 11.6 g/m*3 17.66 C 0 km/h
895 22-09-2021 16:00:00 17.175 C 11.48 g/m*3 17.18 C 0 km/h
896 22-09-2021 17:00:00 17.76667 C 12.08 g/m*3 17.77 C 0 km/h
897 22-09-2021 18:00:00 17.9 C 11.96 g/m*3 17.9 C 0 km/h
898 22-09-2021 19:00:00 14.925 C 10.55 g/m*3 14.93 C 4.13333 km/h
899 22-09-2021 20:00:00 12.725 C 9.73 g/m*3 12.73 C 1.06667 km/h
900 22-09-2021 21:00:00 11.30833 C 9.23 g/m*3 11.31 C 0 km/h
Sensor: Nr:Datum:Temp:Abs-Feuchte:Windchill:Wind:
Aussen-T/F 901 22-09-2021 22:00:00 10.475 C 8.9 g/m*3 10.48 C 0 km/h
902 22-09-2021 23:00:00 9.91667 C 8.72 g/m*3 9.92 C 0.4 km/h
903 23-09-2021 00:00:00 9.43333 C 8.52 g/m*3 9.43 C 0.13333 km/h
904 23-09-2021 01:00:00 9.075 C 8.39 g/m*3 9.07 C 0.13333 km/h
905 23-09-2021 02:00:00 8.625 C 8.18 g/m*3 8.63 C 0.26667 km/h
906 23-09-2021 03:00:00 8.19167 C 7.95 g/m*3 8.19 C 0.13333 km/h
907 23-09-2021 04:00:00 7.54167 C 7.62 g/m*3 7.54 C 0 km/h
908 23-09-2021 05:00:00 7.38333 C 7.59 g/m*3 7.38 C 0 km/h
909 23-09-2021 06:00:00 7.53333 C 7.7 g/m*3 7.53 C 0.13333 km/h
910 23-09-2021 07:00:00 7.83333 C 7.85 g/m*3 7.83 C 0 km/h
911 23-09-2021 08:00:00 8.225 C 8.05 g/m*3 8.23 C 0 km/h
912 23-09-2021 09:00:00 8.58333 C 8.27 g/m*3 8.58 C 0 km/h
913 23-09-2021 10:00:00 9.2 C 8.66 g/m*3 9.2 C 0 km/h
914 23-09-2021 11:00:00 10.65 C 9.5 g/m*3 10.65 C 0 km/h
915 23-09-2021 12:00:00 13.525 C 11.34 g/m*3 13.53 C 0.8 km/h
916 23-09-2021 13:00:00 17.00833 C 11.99 g/m*3 17.01 C 8.33333 km/h
917 23-09-2021 14:00:00 19.60833 C 11.95 g/m*3 19.61 C 7.8 km/h
918 23-09-2021 15:00:00 20.61667 C 12.36 g/m*3 20.62 C 9.00833 km/h
919 23-09-2021 16:00:00 21.23333 C 12.9 g/m*3 21.23 C 8.73333 km/h
920 23-09-2021 17:00:00 22.15 C 12.14 g/m*3 22.15 C 8.04167 km/h
921 23-09-2021 18:00:00 21.625 C 10.34 g/m*3 21.63 C 8.19167 km/h
922 23-09-2021 19:00:00 19.10833 C 10.24 g/m*3 19.11 C 3.89167 km/h
923 23-09-2021 20:00:00 17.84167 C 10.31 g/m*3 17.84 C 8.46667 km/h
924 23-09-2021 21:00:00 17.13333 C 10.62 g/m*3 17.13 C 3.33333 km/h
925 23-09-2021 22:00:00 15.84167 C 10.64 g/m*3 15.84 C 4.26667 km/h
Sensor: Nr:Datum:Temp:Abs-Feuchte:Windchill:Wind:
Aussen-T/F 926 23-09-2021 23:00:00 15.18333 C 10.71 g/m*3 15.18 C 2.4 km/h
927 24-09-2021 00:00:00 14.90833 C 10.77 g/m*3 14.91 C 2.94167 km/h
928 24-09-2021 01:00:00 15.09167 C 10.69 g/m*3 15.09 C 2.8 km/h
929 24-09-2021 02:00:00 14.36667 C 10.6 g/m*3 14.37 C 4.81667 km/h
930 24-09-2021 03:00:00 13.98333 C 10.52 g/m*3 13.98 C 2.675 km/h
931 24-09-2021 04:00:00 13.875 C 10.49 g/m*3 13.88 C 5.09167 km/h
932 24-09-2021 05:00:00 12.85833 C 10.15 g/m*3 12.86 C 3.20833 km/h
933 24-09-2021 06:00:00 12.60833 C 10.18 g/m*3 12.61 C 5.21667 km/h
934 24-09-2021 07:00:00 12.15 C 9.94 g/m*3 12.15 C 1.33333 km/h
935 24-09-2021 08:00:00 11.89167 C 9.92 g/m*3 11.89 C 0.93333 km/h
936 24-09-2021 09:00:00 12.425 C 10.39 g/m*3 12.43 C 3.08333 km/h
937 24-09-2021 10:00:00 14.59167 C 11.6 g/m*3 14.59 C 5.90833 km/h
938 24-09-2021 11:00:00 16.49167 C 12.3 g/m*3 16.49 C 5.1 km/h
939 24-09-2021 12:00:00 18.525 C 12.95 g/m*3 18.52 C 8.05833 km/h
940 24-09-2021 13:00:00 19.35833 C 12.75 g/m*3 19.36 C 10.9 km/h
941 24-09-2021 14:00:00 19.64167 C 12.68 g/m*3 19.64 C 13.56667 km/h
942 24-09-2021 15:00:00 19.18333 C 12.3 g/m*3 19.18 C 12.23333 km/h
943 24-09-2021 16:00:00 19.33333 C 12.63 g/m*3 19.33 C 10.35 km/h
944 24-09-2021 17:00:00 20.68333 C 12.96 g/m*3 20.68 C 5.48333 km/h
945 24-09-2021 18:00:00 19.85 C 13.09 g/m*3 19.85 C 2.93333 km/h
946 24-09-2021 19:00:00 16.875 C 12.26 g/m*3 16.88 C 4.4 km/h
947 24-09-2021 20:00:00 15.55 C 11.88 g/m*3 15.55 C 2.53333 km/h
948 24-09-2021 21:00:00 14.875 C 11.54 g/m*3 14.88 C 4.825 km/h
949 24-09-2021 22:00:00 14.8 C 11.28 g/m*3 14.8 C 5.075 km/h
950 24-09-2021 23:00:00 14.11667 C 10.85 g/m*3 14.12 C 1.33333 km/h
Sensor: Nr:Datum:Temp:Abs-Feuchte:Windchill:Wind:
Aussen-T/F 951 25-09-2021 00:00:00 13.19167 C 10.51 g/m*3 13.19 C 0.66667 km/h
952 25-09-2021 01:00:00 12.74167 C 10.38 g/m*3 12.74 C 0 km/h
953 25-09-2021 02:00:00 12.15833 C 10.06 g/m*3 12.16 C 0 km/h
954 25-09-2021 03:00:00 11.3 C 9.52 g/m*3 11.3 C 0 km/h
955 25-09-2021 04:00:00 10.80833 C 9.35 g/m*3 10.81 C 0 km/h
956 25-09-2021 05:00:00 10.53333 C 9.23 g/m*3 10.53 C 0 km/h
957 25-09-2021 06:00:00 10.65 C 9.34 g/m*3 10.65 C 0 km/h
958 25-09-2021 07:00:00 10.49167 C 9.25 g/m*3 10.49 C 0 km/h
959 25-09-2021 08:00:00 10.425 C 9.27 g/m*3 10.43 C 0 km/h
960 25-09-2021 09:00:00 11.225 C 9.77 g/m*3 11.23 C 0 km/h
961 25-09-2021 10:00:00 12.06667 C 10.35 g/m*3 12.07 C 0 km/h
962 25-09-2021 11:00:00 13.51667 C 11.36 g/m*3 13.52 C 0 km/h
963 25-09-2021 12:00:00 15.16667 C 12.46 g/m*3 15.17 C 0 km/h
964 25-09-2021 13:00:00 16.98333 C 13.07 g/m*3 16.98 C 0 km/h
965 25-09-2021 14:00:00 19.50833 C 13.63 g/m*3 19.51 C 0 km/h
966 25-09-2021 15:00:00 20.625 C 13.83 g/m*3 20.63 C 0 km/h
967 25-09-2021 16:00:00 19.51667 C 13.69 g/m*3 19.52 C 0 km/h
968 25-09-2021 17:00:00 19.4 C 13.65 g/m*3 19.4 C 0 km/h
969 25-09-2021 18:00:00 20.875 C 13.9 g/m*3 20.88 C 0 km/h
970 25-09-2021 19:00:00 17.91667 C 12.12 g/m*3 17.92 C 0 km/h
971 25-09-2021 20:00:00 15.775 C 11.39 g/m*3 15.78 C 0 km/h
972 25-09-2021 21:00:00 14.73333 C 11.13 g/m*3 14.73 C 0 km/h
973 25-09-2021 22:00:00 14.66667 C 11.38 g/m*3 14.67 C 0 km/h
974 25-09-2021 23:00:00 14.93333 C 11.73 g/m*3 14.93 C 0 km/h
975 26-09-2021 00:00:00 15.09167 C 11.86 g/m*3 15.09 C 0 km/h
Sensor: Nr:Datum:Temp:Abs-Feuchte:Windchill:Wind:
Aussen-T/F 976 26-09-2021 01:00:00 14.90833 C 11.74 g/m*3 14.91 C 0 km/h
977 26-09-2021 02:00:00 14.71667 C 11.62 g/m*3 14.72 C 0 km/h
978 26-09-2021 03:00:00 13.79167 C 11.01 g/m*3 13.79 C 0 km/h
979 26-09-2021 04:00:00 13.76667 C 11.18 g/m*3 13.77 C 0 km/h
980 26-09-2021 05:00:00 13.26667 C 10.84 g/m*3 13.27 C 0 km/h
981 26-09-2021 06:00:00 12.775 C 10.57 g/m*3 12.78 C 0 km/h
982 26-09-2021 07:00:00 12.5 C 10.44 g/m*3 12.5 C 0 km/h
983 26-09-2021 08:00:00 12.51667 C 10.53 g/m*3 12.52 C 0 km/h
984 26-09-2021 09:00:00 13.975 C 11.61 g/m*3 13.98 C 0 km/h
985 26-09-2021 10:00:00 15.6 C 12.76 g/m*3 15.6 C 1.06667 km/h
986 26-09-2021 11:00:00 17.725 C 13.93 g/m*3 17.73 C 3.60833 km/h
987 26-09-2021 12:00:00 18.68333 C 14.17 g/m*3 18.68 C 5.48333 km/h
988 26-09-2021 13:00:00 19.59167 C 14.51 g/m*3 19.59 C 3.49167 km/h
989 26-09-2021 14:00:00 19.34167 C 14.91 g/m*3 19.34 C 0.4 km/h
990 26-09-2021 15:00:00 19.25 C 14.95 g/m*3 19.25 C 1.33333 km/h
991 26-09-2021 16:00:00 19.30833 C 15.03 g/m*3 19.31 C 0.13333 km/h
992 26-09-2021 17:00:00 19.25833 C 14.89 g/m*3 19.26 C 0.4 km/h
993 26-09-2021 18:00:00 18.74167 C 14.47 g/m*3 18.74 C 1.2 km/h
994 26-09-2021 19:00:00 17.7 C 13.81 g/m*3 17.7 C 0.66667 km/h
995 26-09-2021 20:00:00 17.11667 C 13.62 g/m*3 17.12 C 1.33333 km/h
996 26-09-2021 21:00:00 16.78333 C 13.44 g/m*3 16.78 C 2 km/h
997 26-09-2021 22:00:00 16.15833 C 13.06 g/m*3 16.16 C 2.13333 km/h
998 26-09-2021 23:00:00 15.43333 C 12.51 g/m*3 15.43 C 0.93333 km/h
999 27-09-2021 00:00:00 14.625 C 11.91 g/m*3 14.63 C 0.26667 km/h
1000 27-09-2021 01:00:00 13.90833 C 11.41 g/m*3 13.91 C 0.13333 km/h
Sensor: Nr:Datum:Temp:Abs-Feuchte:Windchill:Wind:
Aussen-T/F 1001 27-09-2021 02:00:00 13.30833 C 11.08 g/m*3 13.31 C 0 km/h
1002 27-09-2021 03:00:00 13.05833 C 10.93 g/m*3 13.06 C 0 km/h
1003 27-09-2021 04:00:00 13.45 C 11.25 g/m*3 13.45 C 0.13333 km/h
1004 27-09-2021 05:00:00 13.60833 C 11.42 g/m*3 13.61 C 0.26667 km/h
1005 27-09-2021 06:00:00 13.50833 C 11.33 g/m*3 13.51 C 0 km/h
1006 27-09-2021 07:00:00 13.65 C 11.45 g/m*3 13.65 C 0 km/h
1007 27-09-2021 08:00:00 14.01667 C 11.71 g/m*3 14.02 C 0.26667 km/h
1008 27-09-2021 09:00:00 14.96667 C 12.41 g/m*3 14.97 C 1.61667 km/h
1009 27-09-2021 10:00:00 15.8 C 13.07 g/m*3 15.8 C 1.33333 km/h
1010 27-09-2021 11:00:00 17.73333 C 14.12 g/m*3 17.73 C 2.93333 km/h
1011 27-09-2021 12:00:00 19.49167 C 14.26 g/m*3 19.49 C 5.61667 km/h
1012 27-09-2021 13:00:00 20.26667 C 14.38 g/m*3 20.27 C 3.86667 km/h
1013 27-09-2021 14:00:00 20.35 C 14.1 g/m*3 20.35 C 7.25 km/h
1014 27-09-2021 15:00:00 20.31667 C 14.47 g/m*3 20.32 C 1.74167 km/h
1015 27-09-2021 16:00:00 20.00833 C 14.6 g/m*3 20.01 C 0 km/h
1016 27-09-2021 17:00:00 19.18333 C 14.41 g/m*3 19.18 C 0.26667 km/h
1017 27-09-2021 18:00:00 18.425 C 14.11 g/m*3 18.43 C 1.46667 km/h
1018 27-09-2021 19:00:00 17.525 C 13.76 g/m*3 17.52 C 1.06667 km/h
1019 27-09-2021 20:00:00 16.45833 C 13 g/m*3 16.46 C 7.23333 km/h
1020 27-09-2021 21:00:00 14.59167 C 11.53 g/m*3 14.59 C 3.48333 km/h
1021 27-09-2021 22:00:00 13.38333 C 10.88 g/m*3 13.38 C 2.66667 km/h
1022 27-09-2021 23:00:00 12.725 C 10.55 g/m*3 12.73 C 3.06667 km/h
1023 28-09-2021 00:00:00 11.95833 C 10.08 g/m*3 11.96 C 2.53333 km/h
1024 28-09-2021 01:00:00 11.59167 C 9.87 g/m*3 11.59 C 0.4 km/h
1025 28-09-2021 02:00:00 11.23333 C 9.73 g/m*3 11.23 C 0.53333 km/h
Sensor: Nr:Datum:Temp:Abs-Feuchte:Windchill:Wind:
Aussen-T/F 1026 28-09-2021 03:00:00 11.09167 C 9.66 g/m*3 11.09 C 0.8 km/h
1027 28-09-2021 04:00:00 10.95 C 9.59 g/m*3 10.95 C 2.66667 km/h
1028 28-09-2021 05:00:00 10.81667 C 9.5 g/m*3 10.82 C 2.53333 km/h
1029 28-09-2021 06:00:00 10.4 C 9.25 g/m*3 10.4 C 2.4 km/h
1030 28-09-2021 07:00:00 9.65833 C 8.83 g/m*3 9.66 C 0.4 km/h
1031 28-09-2021 08:00:00 9.70833 C 8.91 g/m*3 9.71 C 4 km/h
1032 28-09-2021 09:00:00 10.90833 C 9.65 g/m*3 10.91 C 1.73333 km/h
1033 28-09-2021 10:00:00 12.04167 C 10.32 g/m*3 12.04 C 7.24167 km/h
1034 28-09-2021 11:00:00 12.975 C 10.55 g/m*3 12.98 C 3.46667 km/h
1035 28-09-2021 12:00:00 14.125 C 10.81 g/m*3 14.13 C 3.33333 km/h
1036 28-09-2021 13:00:00 14.93333 C 11.03 g/m*3 14.93 C 4.26667 km/h
1037 28-09-2021 14:00:00 16.25 C 11.23 g/m*3 16.25 C 4.8 km/h
1038 28-09-2021 15:00:00 17 C 10.95 g/m*3 17 C 3.33333 km/h
1039 28-09-2021 16:00:00 17.15 C 10.95 g/m*3 17.15 C 2.13333 km/h
1040 28-09-2021 17:00:00 17.1 C 11.91 g/m*3 17.1 C 1.06667 km/h
1041 28-09-2021 18:00:00 14.93333 C 10.88 g/m*3 14.93 C 2.8 km/h
1042 28-09-2021 19:00:00 13.375 C 10.31 g/m*3 13.38 C 3.6 km/h
1043 28-09-2021 20:00:00 12.55 C 10.07 g/m*3 12.55 C 1.86667 km/h
1044 28-09-2021 21:00:00 11.85 C 9.76 g/m*3 11.85 C 0 km/h
1045 28-09-2021 22:00:00 11.38333 C 9.59 g/m*3 11.38 C 0 km/h
1046 28-09-2021 23:00:00 10.93333 C 9.37 g/m*3 10.93 C 0 km/h
1047 29-09-2021 00:00:00 10.34167 C 9.07 g/m*3 10.34 C 0 km/h
1048 29-09-2021 01:00:00 10.23333 C 9.06 g/m*3 10.23 C 0 km/h
1049 29-09-2021 02:00:00 9.93333 C 8.89 g/m*3 9.93 C 0 km/h
1050 29-09-2021 03:00:00 9.74167 C 8.8 g/m*3 9.74 C 0 km/h
Sensor: Nr:Datum:Temp:Abs-Feuchte:Windchill:Wind:
Aussen-T/F 1051 29-09-2021 04:00:00 9.35 C 8.59 g/m*3 9.35 C 0 km/h
1052 29-09-2021 05:00:00 8.98333 C 8.44 g/m*3 8.98 C 0 km/h
1053 29-09-2021 06:00:00 8.63333 C 8.27 g/m*3 8.63 C 0 km/h
1054 29-09-2021 07:00:00 8.34167 C 8.11 g/m*3 8.34 C 0.53333 km/h
1055 29-09-2021 08:00:00 9.075 C 8.57 g/m*3 9.07 C 1.46667 km/h
1056 29-09-2021 09:00:00 10.35 C 9.32 g/m*3 10.35 C 2.13333 km/h
1057 29-09-2021 10:00:00 11.825 C 10.23 g/m*3 11.83 C 2.41667 km/h
1058 29-09-2021 11:00:00 14.24167 C 11.02 g/m*3 14.24 C 12.9 km/h
1059 29-09-2021 12:00:00 15.05 C 10.96 g/m*3 15.05 C 13.425 km/h
1060 29-09-2021 13:00:00 13.05 C 10.62 g/m*3 13.05 C 9.68333 km/h
1061 29-09-2021 14:00:00 14.09167 C 10.63 g/m*3 14.09 C 12.35833 km/h
1062 29-09-2021 15:00:00 14.58333 C 9.79 g/m*3 14.58 C 14.9 km/h
1063 29-09-2021 16:00:00 14.95 C 9.09 g/m*3 14.95 C 15.96667 km/h
1064 29-09-2021 17:00:00 15.45 C 8.94 g/m*3 15.45 C 11.69167 km/h
1065 29-09-2021 18:00:00 15.85 C 8.43 g/m*3 15.85 C 10.075 km/h
1066 29-09-2021 19:00:00 12.875 C 8.05 g/m*3 12.88 C 7.5 km/h
1067 29-09-2021 20:00:00 10.48333 C 7.86 g/m*3 9.83 C 6.825 km/h
1068 29-09-2021 21:00:00 9.65833 C 7.88 g/m*3 9.66 C 4.4 km/h
1069 29-09-2021 22:00:00 9.28333 C 7.92 g/m*3 9.28 C 4.14167 km/h
1070 29-09-2021 23:00:00 8.79167 C 7.76 g/m*3 8.79 C 2.66667 km/h
1071 30-09-2021 00:00:00 9.28333 C 7.78 g/m*3 8.83 C 5.35833 km/h
1072 30-09-2021 01:00:00 8.89167 C 7.71 g/m*3 8.47 C 5.1 km/h
1073 30-09-2021 02:00:00 9.03333 C 7.77 g/m*3 8.14 C 6.85 km/h
1074 30-09-2021 03:00:00 8.89167 C 7.7 g/m*3 7.69 C 8.05833 km/h
1075 30-09-2021 04:00:00 8.65 C 7.64 g/m*3 7.47 C 7.79167 km/h
Sensor: Nr:Datum:Temp:Abs-Feuchte:Windchill:Wind:
Aussen-T/F 1076 30-09-2021 05:00:00 8.3 C 7.53 g/m*3 7.22 C 7.125 km/h
1077 30-09-2021 06:00:00 7.85 C 7.47 g/m*3 7.85 C 4.80833 km/h
1078 30-09-2021 07:00:00 7.93333 C 7.51 g/m*3 6.27 C 9.425 km/h
1079 30-09-2021 08:00:00 7.73333 C 7.49 g/m*3 6.3 C 8.20833 km/h
1080 30-09-2021 09:00:00 8.29167 C 7.72 g/m*3 6.57 C 10.1 km/h
1081 30-09-2021 10:00:00 9.16667 C 8.05 g/m*3 8.07 C 7.79167 km/h
1082 30-09-2021 11:00:00 10.49167 C 8.5 g/m*3 9.93 C 6.43333 km/h
1083 30-09-2021 12:00:00 12.2 C 8.78 g/m*3 12.2 C 9.68333 km/h
1084 30-09-2021 13:00:00 13.36667 C 8.77 g/m*3 13.37 C 12.23333 km/h
1085 30-09-2021 14:00:00 14.70833 C 8.71 g/m*3 14.71 C 10.60833 km/h
1086 30-09-2021 15:00:00 14.86667 C 8.53 g/m*3 14.87 C 9.01667 km/h
1087 30-09-2021 16:00:00 14.95833 C 8.44 g/m*3 14.96 C 6.05833 km/h
1088 30-09-2021 17:00:00 14.45 C 9.81 g/m*3 14.45 C 0.66667 km/h
1089 30-09-2021 18:00:00 13.25833 C 9.62 g/m*3 13.26 C 0.26667 km/h
1090 30-09-2021 19:00:00 11.84167 C 9.11 g/m*3 11.84 C 2 km/h
1091 30-09-2021 20:00:00 11.175 C 8.95 g/m*3 11.18 C 1.73333 km/h
1092 30-09-2021 21:00:00 10.51667 C 8.66 g/m*3 10.52 C 1.33333 km/h
1093 30-09-2021 22:00:00 9.91667 C 8.48 g/m*3 9.92 C 1.86667 km/h
1094 30-09-2021 23:00:00 9.85 C 8.49 g/m*3 9.85 C 0 km/h
1095 01-10-2021 00:00:00 9.15833 C 8.1 g/m*3 9.16 C 1.33333 km/h
1096 01-10-2021 01:00:00 8.33333 C 7.69 g/m*3 8.33 C 0.66667 km/h
1097 01-10-2021 02:00:00 7.64167 C 7.45 g/m*3 7.64 C 0.4 km/h
1098 01-10-2021 03:00:00 7.05 C 7.23 g/m*3 7.05 C 0.13333 km/h
1099 01-10-2021 04:00:00 7 C 7.28 g/m*3 7 C 0 km/h
1100 01-10-2021 05:00:00 6.86667 C 7.22 g/m*3 6.87 C 0 km/h
Sensor: Nr:Datum:Temp:Abs-Feuchte:Windchill:Wind:
Aussen-T/F 1101 01-10-2021 06:00:00 6.38333 C 7.04 g/m*3 6.38 C 0.13333 km/h
1102 01-10-2021 07:00:00 5.875 C 6.84 g/m*3 5.88 C 0 km/h
1103 01-10-2021 08:00:00 5.83333 C 6.82 g/m*3 5.83 C 0 km/h
1104 01-10-2021 09:00:00 6.475 C 7.19 g/m*3 6.48 C 0.13333 km/h
1105 01-10-2021 10:00:00 8.5 C 8.26 g/m*3 8.5 C 0.13333 km/h
1106 01-10-2021 11:00:00 10.40833 C 9.25 g/m*3 10.41 C 1.73333 km/h
1107 01-10-2021 12:00:00 12.95833 C 9.91 g/m*3 12.96 C 4.55833 km/h
1108 01-10-2021 13:00:00 15.55833 C 9.54 g/m*3 15.56 C 7.9 km/h
1109 01-10-2021 14:00:00 17.55 C 9.28 g/m*3 17.55 C 7.24167 km/h
1110 01-10-2021 15:00:00 18.19167 C 9.53 g/m*3 18.19 C 6.3 km/h
1111 01-10-2021 16:00:00 18 C 10.97 g/m*3 18 C 1.46667 km/h
1112 01-10-2021 17:00:00 16.15833 C 10.6 g/m*3 16.16 C 5.34167 km/h
1113 01-10-2021 18:00:00 14.25 C 9.84 g/m*3 14.25 C 6.40833 km/h
1114 01-10-2021 19:00:00 13.00833 C 9.41 g/m*3 13.01 C 4.54167 km/h
1115 01-10-2021 20:00:00 12.51667 C 9.35 g/m*3 12.52 C 2.93333 km/h
1116 01-10-2021 21:00:00 12.34167 C 9.4 g/m*3 12.34 C 1.86667 km/h
1117 01-10-2021 22:00:00 12.26667 C 9.46 g/m*3 12.27 C 0.26667 km/h
1118 01-10-2021 23:00:00 12.375 C 9.83 g/m*3 12.38 C 1.46667 km/h
1119 02-10-2021 00:00:00 12.20833 C 9.82 g/m*3 12.21 C 1.875 km/h
1120 02-10-2021 01:00:00 13.4 C 9.91 g/m*3 13.4 C 6.30833 km/h
1121 02-10-2021 02:00:00 13.575 C 9.99 g/m*3 13.58 C 2.53333 km/h
1122 02-10-2021 03:00:00 13.225 C 10.17 g/m*3 13.23 C 2.80833 km/h
1123 02-10-2021 04:00:00 12.80833 C 10.28 g/m*3 12.81 C 2.675 km/h
1124 02-10-2021 05:00:00 12.8 C 10.39 g/m*3 12.8 C 0.66667 km/h
1125 02-10-2021 06:00:00 12.86667 C 10.46 g/m*3 12.87 C 0.53333 km/h
Sensor: Nr:Datum:Temp:Abs-Feuchte:Windchill:Wind:
Aussen-T/F 1126 02-10-2021 07:00:00 12.8 C 10.48 g/m*3 12.8 C 0.53333 km/h
1127 02-10-2021 08:00:00 12.83333 C 10.58 g/m*3 12.83 C 0.26667 km/h
1128 02-10-2021 09:00:00 13.35833 C 10.92 g/m*3 13.36 C 0.4 km/h
1129 02-10-2021 10:00:00 14.41667 C 11.32 g/m*3 14.42 C 0.26667 km/h
1130 02-10-2021 11:00:00 15.33333 C 11.52 g/m*3 15.33 C 1.6 km/h
1131 02-10-2021 12:00:00 16.05 C 11.64 g/m*3 16.05 C 3.34167 km/h
1132 02-10-2021 13:00:00 16.79167 C 11.79 g/m*3 16.79 C 7.11667 km/h
1133 02-10-2021 14:00:00 17.46667 C 11.79 g/m*3 17.47 C 6.45 km/h
1134 02-10-2021 15:00:00 18.48333 C 12.32 g/m*3 18.48 C 2.8 km/h
1135 02-10-2021 16:00:00 18.16667 C 12.56 g/m*3 18.17 C 3.75833 km/h
1136 02-10-2021 17:00:00 17.83333 C 12.71 g/m*3 17.83 C 2.26667 km/h
1137 02-10-2021 18:00:00 16.51667 C 12.1 g/m*3 16.52 C 2.8 km/h
1138 02-10-2021 19:00:00 15.18333 C 11.54 g/m*3 15.18 C 1.46667 km/h
1139 02-10-2021 20:00:00 14.85 C 11.29 g/m*3 14.85 C 1.73333 km/h
1140 02-10-2021 21:00:00 15.45 C 11.42 g/m*3 15.45 C 3.6 km/h
1141 02-10-2021 22:00:00 16.26667 C 11.87 g/m*3 16.27 C 4.95833 km/h
1142 02-10-2021 23:00:00 17.66667 C 12.12 g/m*3 17.67 C 5.76667 km/h
1143 03-10-2021 00:00:00 18.075 C 12.05 g/m*3 18.08 C 7.10833 km/h
1144 03-10-2021 01:00:00 18.3 C 11.96 g/m*3 18.3 C 4.80833 km/h
1145 03-10-2021 02:00:00 18.85 C 11.66 g/m*3 18.85 C 9.95 km/h
1146 03-10-2021 03:00:00 18.98333 C 11.84 g/m*3 18.98 C 6.71667 km/h
1147 03-10-2021 04:00:00 18.825 C 12.23 g/m*3 18.83 C 3.74167 km/h
1148 03-10-2021 05:00:00 17.85 C 12.23 g/m*3 17.85 C 3.35 km/h
1149 03-10-2021 06:00:00 18.50833 C 12.08 g/m*3 18.51 C 6.70833 km/h
1150 03-10-2021 07:00:00 19.35833 C 12.03 g/m*3 19.36 C 6.15 km/h
Sensor: Nr:Datum:Temp:Abs-Feuchte:Windchill:Wind:
Aussen-T/F 1151 03-10-2021 08:00:00 18.86667 C 11.99 g/m*3 18.87 C 4.55 km/h
1152 03-10-2021 09:00:00 19.33333 C 11.8 g/m*3 19.33 C 6.44167 km/h
1153 03-10-2021 10:00:00 20.125 C 12.07 g/m*3 20.13 C 7.78333 km/h
1154 03-10-2021 11:00:00 19.48333 C 12.66 g/m*3 19.48 C 6.43333 km/h
1155 03-10-2021 12:00:00 19.76667 C 12.36 g/m*3 19.77 C 7.65 km/h
1156 03-10-2021 13:00:00 21.50833 C 12.23 g/m*3 21.51 C 7.93333 km/h
1157 03-10-2021 14:00:00 22.86667 C 12.19 g/m*3 22.87 C 12.75833 km/h
1158 03-10-2021 15:00:00 21.225 C 12.71 g/m*3 21.23 C 12.48333 km/h
1159 03-10-2021 16:00:00 19.36667 C 13.21 g/m*3 19.37 C 9.11667 km/h
1160 03-10-2021 17:00:00 19.15833 C 12.68 g/m*3 19.16 C 10.225 km/h
1161 03-10-2021 18:00:00 18.63333 C 12.56 g/m*3 18.63 C 8.05833 km/h
1162 03-10-2021 19:00:00 17.81667 C 12.42 g/m*3 17.82 C 4.28333 km/h
1163 03-10-2021 20:00:00 16.13333 C 11.8 g/m*3 16.13 C 8.725 km/h
1164 03-10-2021 21:00:00 14.13333 C 10.73 g/m*3 14.13 C 2.8 km/h
1165 03-10-2021 22:00:00 13.51667 C 10.3 g/m*3 13.52 C 5.1 km/h
1166 03-10-2021 23:00:00 13.50833 C 9.91 g/m*3 13.51 C 6.425 km/h
1167 04-10-2021 00:00:00 13.30833 C 9.93 g/m*3 13.31 C 5.625 km/h
1168 04-10-2021 01:00:00 13.125 C 9.9 g/m*3 13.13 C 3.475 km/h
1169 04-10-2021 02:00:00 12.9 C 9.79 g/m*3 12.9 C 6.56667 km/h
1170 04-10-2021 03:00:00 12.825 C 9.72 g/m*3 12.83 C 1.33333 km/h
1171 04-10-2021 04:00:00 12.325 C 9.71 g/m*3 12.33 C 0.26667 km/h
1172 04-10-2021 05:00:00 12.125 C 9.78 g/m*3 12.13 C 0 km/h
1173 04-10-2021 06:00:00 11.8 C 9.68 g/m*3 11.8 C 0.8 km/h
1174 04-10-2021 07:00:00 11.79167 C 9.77 g/m*3 11.79 C 1.6 km/h
1175 04-10-2021 08:00:00 12.05 C 9.9 g/m*3 12.05 C 0.26667 km/h
Sensor: Nr:Datum:Temp:Abs-Feuchte:Windchill:Wind:
Aussen-T/F 1176 04-10-2021 09:00:00 12.6 C 10.29 g/m*3 12.6 C 0 km/h
1177 04-10-2021 10:00:00 13.49167 C 10.4 g/m*3 13.49 C 0.53333 km/h
1178 04-10-2021 11:00:00 14.83333 C 10.4 g/m*3 14.83 C 4.14167 km/h
1179 04-10-2021 12:00:00 15.89167 C 10.41 g/m*3 15.89 C 5.90833 km/h
1180 04-10-2021 13:00:00 16.675 C 10.28 g/m*3 16.68 C 8.05833 km/h
1181 04-10-2021 14:00:00 17.03333 C 10.08 g/m*3 17.03 C 5.78333 km/h
1182 04-10-2021 15:00:00 17.525 C 10.27 g/m*3 17.52 C 4.7 km/h
1183 04-10-2021 16:00:00 17.13333 C 10.6 g/m*3 17.13 C 2.00833 km/h
1184 04-10-2021 17:00:00 16.85 C 11.08 g/m*3 16.85 C 0 km/h
1185 04-10-2021 18:00:00 17.4 C 10.94 g/m*3 17.4 C 0.26667 km/h
1186 04-10-2021 19:00:00 13.04167 C 9.41 g/m*3 13.04 C 5.6 km/h
1187 04-10-2021 20:00:00 11.25833 C 9 g/m*3 11.26 C 2 km/h
1188 04-10-2021 21:00:00 10.43333 C 8.75 g/m*3 10.43 C 0.4 km/h
1189 04-10-2021 22:00:00 10.36667 C 8.85 g/m*3 10.37 C 0 km/h
1190 04-10-2021 23:00:00 10 C 8.68 g/m*3 10 C 0.13333 km/h
1191 05-10-2021 00:00:00 9.65833 C 8.55 g/m*3 9.66 C 0 km/h
1192 05-10-2021 01:00:00 9.40833 C 8.49 g/m*3 9.41 C 0 km/h
1193 05-10-2021 02:00:00 9.58333 C 8.65 g/m*3 9.58 C 0 km/h
1194 05-10-2021 03:00:00 9.34167 C 8.52 g/m*3 9.34 C 0 km/h
1195 05-10-2021 04:00:00 9.475 C 8.63 g/m*3 9.48 C 0.26667 km/h
1196 05-10-2021 05:00:00 9.375 C 8.58 g/m*3 9.38 C 0.26667 km/h
1197 05-10-2021 06:00:00 9.28333 C 8.53 g/m*3 9.28 C 0 km/h
1198 05-10-2021 07:00:00 9.325 C 8.6 g/m*3 9.32 C 0 km/h
1199 05-10-2021 08:00:00 9.59167 C 8.79 g/m*3 9.59 C 0 km/h
1200 05-10-2021 09:00:00 10.51667 C 9.32 g/m*3 10.52 C 0.4 km/h
Sensor: Nr:Datum:Temp:Abs-Feuchte:Windchill:Wind:
Aussen-T/F 1201 05-10-2021 10:00:00 11.51667 C 9.9 g/m*3 11.52 C 0.13333 km/h
1202 05-10-2021 11:00:00 12.875 C 10.36 g/m*3 12.88 C 3.34167 km/h
1203 05-10-2021 12:00:00 14.53333 C 10.28 g/m*3 14.53 C 4.40833 km/h
1204 05-10-2021 13:00:00 15.95833 C 9.85 g/m*3 15.96 C 8.05833 km/h
1205 05-10-2021 14:00:00 17.5 C 10.08 g/m*3 17.5 C 11.29167 km/h
1206 05-10-2021 15:00:00 17.73333 C 10.48 g/m*3 17.73 C 5.09167 km/h
1207 05-10-2021 16:00:00 17.575 C 10.61 g/m*3 17.58 C 2.68333 km/h
1208 05-10-2021 17:00:00 15.775 C 11.28 g/m*3 15.78 C 1.73333 km/h
1209 05-10-2021 18:00:00 14.3 C 11.23 g/m*3 14.3 C 0.93333 km/h
1210 05-10-2021 19:00:00 13.65 C 10.97 g/m*3 13.65 C 5.49167 km/h
1211 05-10-2021 20:00:00 12.8 C 10.3 g/m*3 12.8 C 6.15833 km/h
1212 05-10-2021 21:00:00 11.70833 C 9.69 g/m*3 11.71 C 5.35833 km/h
1213 05-10-2021 22:00:00 11.075 C 9.35 g/m*3 11.08 C 5.21667 km/h
1214 05-10-2021 23:00:00 10.975 C 9.32 g/m*3 10.98 C 4.81667 km/h
1215 06-10-2021 00:00:00 11.025 C 9.27 g/m*3 11.03 C 8.45833 km/h
1216 06-10-2021 01:00:00 11.09167 C 9.17 g/m*3 11.09 C 7.39167 km/h
1217 06-10-2021 02:00:00 10.775 C 8.98 g/m*3 10.42 C 5.75833 km/h
1218 06-10-2021 03:00:00 11.3 C 9.04 g/m*3 11.3 C 10.5 km/h
1219 06-10-2021 04:00:00 11.09167 C 8.84 g/m*3 11.09 C 9 km/h
1220 06-10-2021 05:00:00 10.85 C 8.77 g/m*3 9.7 C 9.675 km/h
1221 06-10-2021 06:00:00 10.45 C 8.66 g/m*3 10.45 C 4.54167 km/h
1222 06-10-2021 07:00:00 10.09167 C 8.58 g/m*3 9.83 C 5.08333 km/h
1223 06-10-2021 08:00:00 10.825 C 8.79 g/m*3 10.08 C 7.50833 km/h
1224 06-10-2021 09:00:00 11.70833 C 8.84 g/m*3 11.71 C 14.5 km/h
1225 06-10-2021 10:00:00 12.53333 C 8.91 g/m*3 12.53 C 16.1 km/h
Sensor: Nr:Datum:Temp:Abs-Feuchte:Windchill:Wind:
Aussen-T/F 1226 06-10-2021 11:00:00 12.10833 C 9.01 g/m*3 12.11 C 9.275 km/h
1227 06-10-2021 12:00:00 12.375 C 9.14 g/m*3 12.38 C 13.03333 km/h
1228 06-10-2021 13:00:00 13.23333 C 9.05 g/m*3 13.23 C 16.36667 km/h
1229 06-10-2021 14:00:00 13.91667 C 9.33 g/m*3 13.92 C 14.63333 km/h
1230 06-10-2021 15:00:00 13.93333 C 9.22 g/m*3 13.93 C 15.7 km/h
1231 06-10-2021 16:00:00 13.49167 C 9.25 g/m*3 13.49 C 12.63333 km/h
1232 06-10-2021 17:00:00 13.95833 C 9.49 g/m*3 13.96 C 13.15833 km/h
1233 06-10-2021 18:00:00 13.00833 C 9.39 g/m*3 13.01 C 6.71667 km/h
1234 06-10-2021 19:00:00 12.51667 C 9.41 g/m*3 12.52 C 5.88333 km/h
1235 06-10-2021 20:00:00 11.8 C 9.46 g/m*3 11.8 C 5.35833 km/h
1236 06-10-2021 21:00:00 11.35 C 9.46 g/m*3 11.35 C 4.41667 km/h
1237 06-10-2021 22:00:00 11.16667 C 9.47 g/m*3 11.17 C 6.3 km/h
1238 06-10-2021 23:00:00 11.09167 C 9.46 g/m*3 11.09 C 5.225 km/h
1239 07-10-2021 00:00:00 11.05 C 9.52 g/m*3 11.05 C 5.5 km/h
1240 07-10-2021 01:00:00 10.98333 C 9.5 g/m*3 10.98 C 4.40833 km/h
1241 07-10-2021 02:00:00 11.01667 C 9.52 g/m*3 11.02 C 1.6 km/h
1242 07-10-2021 03:00:00 10.98333 C 9.5 g/m*3 10.98 C 0.13333 km/h
1243 07-10-2021 04:00:00 10.9 C 9.54 g/m*3 10.9 C 0.66667 km/h
1244 07-10-2021 05:00:00 11.03333 C 9.63 g/m*3 11.03 C 0.13333 km/h
1245 07-10-2021 06:00:00 11.1 C 9.67 g/m*3 11.1 C 0 km/h
1246 07-10-2021 07:00:00 11.05833 C 9.64 g/m*3 11.06 C 0 km/h
1247 07-10-2021 08:00:00 11.19167 C 9.73 g/m*3 11.19 C 0 km/h
1248 07-10-2021 09:00:00 11.65 C 10.01 g/m*3 11.65 C 1.73333 km/h
1249 07-10-2021 10:00:00 12.03333 C 10.18 g/m*3 12.03 C 0.93333 km/h
1250 07-10-2021 11:00:00 12.79167 C 10.69 g/m*3 12.79 C 1.06667 km/h
Sensor: Nr:Datum:Temp:Abs-Feuchte:Windchill:Wind:
Aussen-T/F 1251 07-10-2021 12:00:00 13.61667 C 10.68 g/m*3 13.62 C 2.13333 km/h
1252 07-10-2021 13:00:00 14.575 C 10.56 g/m*3 14.58 C 2.675 km/h
1253 07-10-2021 14:00:00 15.33333 C 10.52 g/m*3 15.33 C 5.08333 km/h
1254 07-10-2021 15:00:00 16.125 C 10.39 g/m*3 16.13 C 7.24167 km/h
1255 07-10-2021 16:00:00 16.325 C 10.25 g/m*3 16.33 C 9.15 km/h
1256 07-10-2021 17:00:00 16.525 C 10.51 g/m*3 16.52 C 3.475 km/h
1257 07-10-2021 18:00:00 15.71667 C 10.64 g/m*3 15.72 C 3.06667 km/h
1258 07-10-2021 19:00:00 12.45833 C 9.51 g/m*3 12.46 C 3.46667 km/h
1259 07-10-2021 20:00:00 10.85833 C 8.97 g/m*3 10.86 C 1.46667 km/h
1260 07-10-2021 21:00:00 9.58333 C 8.43 g/m*3 9.58 C 0.13333 km/h
1261 07-10-2021 22:00:00 8.81667 C 8.12 g/m*3 8.82 C 0 km/h
1262 07-10-2021 23:00:00 8.23333 C 7.89 g/m*3 8.23 C 0 km/h
1263 08-10-2021 00:00:00 7.75 C 7.69 g/m*3 7.75 C 0 km/h
1264 08-10-2021 01:00:00 7.275 C 7.49 g/m*3 7.28 C 0 km/h
1265 08-10-2021 02:00:00 7.39167 C 7.58 g/m*3 7.39 C 0 km/h
1266 08-10-2021 03:00:00 8.025 C 7.95 g/m*3 8.03 C 0 km/h
1267 08-10-2021 04:00:00 8.15833 C 8.02 g/m*3 8.16 C 0.13333 km/h
1268 08-10-2021 05:00:00 8.125 C 8 g/m*3 8.13 C 0.13333 km/h
1269 08-10-2021 06:00:00 7.99167 C 7.99 g/m*3 7.99 C 0.13333 km/h
1270 08-10-2021 07:00:00 7.925 C 7.93 g/m*3 7.93 C 0.26667 km/h
1271 08-10-2021 08:00:00 8.05833 C 8.05 g/m*3 8.06 C 0.26667 km/h
1272 08-10-2021 09:00:00 8.475 C 8.27 g/m*3 8.48 C 1.46667 km/h
1273 08-10-2021 10:00:00 8.86667 C 8.48 g/m*3 8.87 C 2.8 km/h
1274 08-10-2021 11:00:00 9.225 C 8.68 g/m*3 9.23 C 3.33333 km/h
1275 08-10-2021 12:00:00 10.18333 C 9.23 g/m*3 10.18 C 1.46667 km/h
Sensor: Nr:Datum:Temp:Abs-Feuchte:Windchill:Wind:
Aussen-T/F 1276 08-10-2021 13:00:00 11.825 C 10.26 g/m*3 11.83 C 0.26667 km/h
1277 08-10-2021 14:00:00 13.41667 C 11.28 g/m*3 13.42 C 0.13333 km/h
1278 08-10-2021 15:00:00 15.525 C 11.3 g/m*3 15.53 C 6.85 km/h
1279 08-10-2021 16:00:00 17.325 C 10.86 g/m*3 17.33 C 8.05833 km/h
1280 08-10-2021 17:00:00 17.06667 C 11.08 g/m*3 17.07 C 3.33333 km/h
1281 08-10-2021 18:00:00 16.18333 C 10.88 g/m*3 16.18 C 1.73333 km/h
1282 08-10-2021 19:00:00 12.90833 C 9.85 g/m*3 12.91 C 1.33333 km/h
1283 08-10-2021 20:00:00 11.71667 C 9.49 g/m*3 11.72 C 0.26667 km/h
1284 08-10-2021 21:00:00 10.61667 C 8.96 g/m*3 10.62 C 0.13333 km/h
1285 08-10-2021 22:00:00 9.78333 C 8.64 g/m*3 9.78 C 0.13333 km/h
1286 08-10-2021 23:00:00 9.40833 C 8.54 g/m*3 9.41 C 0.53333 km/h
1287 09-10-2021 00:00:00 9.14167 C 8.45 g/m*3 9.14 C 2 km/h
1288 09-10-2021 01:00:00 8.78333 C 8.26 g/m*3 8.78 C 0.93333 km/h
1289 09-10-2021 02:00:00 8.24167 C 7.98 g/m*3 8.24 C 1.06667 km/h
1290 09-10-2021 03:00:00 7.55 C 7.63 g/m*3 7.55 C 0.13333 km/h
1291 09-10-2021 04:00:00 7.025 C 7.4 g/m*3 7.03 C 0.4 km/h
1292 09-10-2021 05:00:00 6.8 C 7.31 g/m*3 6.8 C 1.33333 km/h
1293 09-10-2021 06:00:00 6.84167 C 7.36 g/m*3 6.84 C 0.8 km/h
1294 09-10-2021 07:00:00 5.875 C 6.87 g/m*3 5.88 C 0 km/h
1295 09-10-2021 08:00:00 6.05 C 6.99 g/m*3 6.05 C 0 km/h
1296 09-10-2021 09:00:00 6.65 C 7.3 g/m*3 6.65 C 0 km/h
1297 09-10-2021 10:00:00 7.28333 C 7.66 g/m*3 7.28 C 0.26667 km/h
1298 09-10-2021 11:00:00 8.63333 C 8.35 g/m*3 8.63 C 0.8 km/h
1299 09-10-2021 12:00:00 10 C 9.11 g/m*3 10 C 2.26667 km/h
1300 09-10-2021 13:00:00 11.84167 C 10.22 g/m*3 11.84 C 2 km/h
Sensor: Nr:Datum:Temp:Abs-Feuchte:Windchill:Wind:
Aussen-T/F 1301 09-10-2021 14:00:00 13.51667 C 10.63 g/m*3 13.52 C 1.6 km/h
1302 09-10-2021 15:00:00 14.85833 C 10.59 g/m*3 14.86 C 2.8 km/h
1303 09-10-2021 16:00:00 14.11667 C 10.27 g/m*3 14.12 C 2.66667 km/h
1304 09-10-2021 17:00:00 14.89167 C 10.38 g/m*3 14.89 C 3.875 km/h
1305 09-10-2021 18:00:00 14.46667 C 9.87 g/m*3 14.47 C 3.2 km/h
1306 09-10-2021 19:00:00 11.56667 C 8.83 g/m*3 11.57 C 4.00833 km/h
1307 09-10-2021 20:00:00 10.28333 C 8.4 g/m*3 10.28 C 2.13333 km/h
1308 09-10-2021 21:00:00 9.41667 C 8.15 g/m*3 9.42 C 1.06667 km/h
1309 09-10-2021 22:00:00 8.53333 C 7.75 g/m*3 8.53 C 0.26667 km/h
1310 09-10-2021 23:00:00 7.325 C 7.28 g/m*3 7.33 C 0.26667 km/h
1311 10-10-2021 00:00:00 6.59167 C 7.04 g/m*3 6.59 C 0 km/h
1312 10-10-2021 01:00:00 6.20833 C 6.92 g/m*3 6.21 C 1.46667 km/h
1313 10-10-2021 02:00:00 5.46667 C 6.59 g/m*3 5.47 C 0 km/h
1314 10-10-2021 03:00:00 4.63333 C 6.25 g/m*3 4.63 C 0 km/h
1315 10-10-2021 04:00:00 4.81667 C 6.38 g/m*3 4.82 C 0 km/h
1316 10-10-2021 05:00:00 4.90833 C 6.45 g/m*3 4.91 C 0.4 km/h
1317 10-10-2021 06:00:00 4.75833 C 6.4 g/m*3 4.76 C 0 km/h
1318 10-10-2021 07:00:00 4.40833 C 6.26 g/m*3 4.41 C 0.26667 km/h
1319 10-10-2021 08:00:00 4.25833 C 6.21 g/m*3 4.26 C 0.4 km/h
1320 10-10-2021 09:00:00 4.525 C 6.33 g/m*3 4.53 C 1.2 km/h
1321 10-10-2021 10:00:00 5.13333 C 6.62 g/m*3 5.13 C 1.06667 km/h
1322 10-10-2021 11:00:00 6.00833 C 7.04 g/m*3 6.01 C 1.6 km/h
1323 10-10-2021 12:00:00 7.20833 C 7.62 g/m*3 7.21 C 0.8 km/h
1324 10-10-2021 13:00:00 9.46667 C 8.78 g/m*3 9.47 C 1.2 km/h
1325 10-10-2021 14:00:00 11.66667 C 9.69 g/m*3 11.67 C 0.26667 km/h
Sensor: Nr:Datum:Temp:Abs-Feuchte:Windchill:Wind:
Aussen-T/F 1326 10-10-2021 15:00:00 13.06667 C 9.68 g/m*3 13.07 C 1.2 km/h
1327 10-10-2021 16:00:00 12.41667 C 9.31 g/m*3 12.42 C 1.6 km/h
1328 10-10-2021 17:00:00 12.51667 C 9.42 g/m*3 12.52 C 3.6 km/h
1329 10-10-2021 18:00:00 12.40833 C 8.95 g/m*3 12.41 C 5.60833 km/h
1330 10-10-2021 19:00:00 9.49167 C 7.88 g/m*3 9.49 C 4.40833 km/h
1331 10-10-2021 20:00:00 7.65833 C 7.29 g/m*3 7.66 C 0 km/h
1332 10-10-2021 21:00:00 6.50833 C 6.93 g/m*3 6.51 C 0.13333 km/h
1333 10-10-2021 22:00:00 6.00833 C 6.81 g/m*3 6.01 C 0 km/h
1334 10-10-2021 23:00:00 5.50833 C 6.61 g/m*3 5.51 C 0.4 km/h
1335 11-10-2021 00:00:00 5.075 C 6.49 g/m*3 5.08 C 0.4 km/h
1336 11-10-2021 01:00:00 4.725 C 6.34 g/m*3 4.72 C 0.13333 km/h
1337 11-10-2021 02:00:00 4.53333 C 6.27 g/m*3 4.53 C 1.06667 km/h
1338 11-10-2021 03:00:00 4.2 C 6.14 g/m*3 4.2 C 0.13333 km/h
1339 11-10-2021 04:00:00 4.78333 C 6.43 g/m*3 4.78 C 0 km/h
1340 11-10-2021 05:00:00 4.925 C 6.49 g/m*3 4.93 C 0 km/h
1341 11-10-2021 06:00:00 4.93333 C 6.49 g/m*3 4.93 C 0 km/h
1342 11-10-2021 07:00:00 5.75833 C 6.86 g/m*3 5.76 C 1.46667 km/h
1343 11-10-2021 08:00:00 6.38333 C 7.15 g/m*3 6.38 C 1.86667 km/h
1344 11-10-2021 09:00:00 7.03333 C 7.47 g/m*3 7.03 C 1.73333 km/h
1345 11-10-2021 10:00:00 7.78333 C 7.87 g/m*3 7.78 C 1.46667 km/h
1346 11-10-2021 11:00:00 9.075 C 8.57 g/m*3 9.07 C 0.4 km/h
1347 11-10-2021 12:00:00 11.06667 C 9.61 g/m*3 11.07 C 2.675 km/h
1348 11-10-2021 13:00:00 13.075 C 9.9 g/m*3 13.08 C 6.85833 km/h
1349 11-10-2021 14:00:00 13.55 C 9.7 g/m*3 13.55 C 6.975 km/h
1350 11-10-2021 15:00:00 13.81667 C 9.4 g/m*3 13.82 C 8.31667 km/h
Sensor: Nr:Datum:Temp:Abs-Feuchte:Windchill:Wind:
Aussen-T/F 1351 11-10-2021 16:00:00 14.075 C 9.28 g/m*3 14.08 C 8.05 km/h
1352 11-10-2021 17:00:00 14.05833 C 9.26 g/m*3 14.06 C 5.225 km/h
1353 11-10-2021 18:00:00 13.13333 C 9.28 g/m*3 13.13 C 2.66667 km/h
1354 11-10-2021 19:00:00 10.725 C 8.61 g/m*3 10.73 C 4.53333 km/h
1355 11-10-2021 20:00:00 10.15 C 8.63 g/m*3 10.15 C 1.33333 km/h
1356 11-10-2021 21:00:00 9.74167 C 8.45 g/m*3 9.74 C 0 km/h
1357 11-10-2021 22:00:00 9.84167 C 8.64 g/m*3 9.84 C 0.26667 km/h
1358 11-10-2021 23:00:00 9.83333 C 8.74 g/m*3 9.83 C 0.93333 km/h
1359 12-10-2021 00:00:00 9.775 C 8.75 g/m*3 9.78 C 0.26667 km/h
1360 12-10-2021 01:00:00 9.63333 C 8.72 g/m*3 9.63 C 0.66667 km/h
1361 12-10-2021 02:00:00 9.45 C 8.62 g/m*3 9.45 C 0 km/h
1362 12-10-2021 03:00:00 9.4 C 8.63 g/m*3 9.4 C 0.66667 km/h
1363 12-10-2021 04:00:00 9.5 C 8.74 g/m*3 9.5 C 0.26667 km/h
1364 12-10-2021 05:00:00 9.58333 C 8.78 g/m*3 9.58 C 0.66667 km/h
1365 12-10-2021 06:00:00 9.58333 C 8.78 g/m*3 9.58 C 1.33333 km/h
1366 12-10-2021 07:00:00 9.38333 C 8.67 g/m*3 9.38 C 0.26667 km/h
1367 12-10-2021 08:00:00 9.39167 C 8.68 g/m*3 9.39 C 3.33333 km/h
1368 12-10-2021 09:00:00 9.70833 C 8.87 g/m*3 9.71 C 3.06667 km/h
1369 12-10-2021 10:00:00 10.49167 C 9.33 g/m*3 10.49 C 3.86667 km/h
1370 12-10-2021 11:00:00 10.825 C 9.48 g/m*3 10.83 C 3.60833 km/h
1371 12-10-2021 12:00:00 11.54167 C 9.78 g/m*3 11.54 C 6.85833 km/h
1372 12-10-2021 13:00:00 11.70833 C 9.89 g/m*3 11.71 C 3.74167 km/h
1373 12-10-2021 14:00:00 11.73333 C 9.96 g/m*3 11.73 C 2.26667 km/h
1374 12-10-2021 15:00:00 11.55833 C 9.87 g/m*3 11.56 C 1.6 km/h
1375 12-10-2021 16:00:00 11.99167 C 10.23 g/m*3 11.99 C 2 km/h
Sensor: Nr:Datum:Temp:Abs-Feuchte:Windchill:Wind:
Aussen-T/F 1376 12-10-2021 17:00:00 11.65833 C 10.01 g/m*3 11.66 C 4.53333 km/h
1377 12-10-2021 18:00:00 11.21667 C 9.7 g/m*3 11.22 C 2.95 km/h
1378 12-10-2021 19:00:00 10.20833 C 9.06 g/m*3 10.21 C 0.8 km/h
1379 12-10-2021 20:00:00 9.21667 C 8.53 g/m*3 9.22 C 2.8 km/h
1380 12-10-2021 21:00:00 8.05 C 7.92 g/m*3 8.05 C 0.4 km/h
1381 12-10-2021 22:00:00 7.86667 C 7.87 g/m*3 7.87 C 0 km/h
1382 12-10-2021 23:00:00 7.55 C 7.71 g/m*3 7.55 C 2.13333 km/h
1383 13-10-2021 00:00:00 6.93333 C 7.41 g/m*3 6.93 C 0.4 km/h
1384 13-10-2021 01:00:00 6.41667 C 7.16 g/m*3 6.42 C 0.4 km/h
1385 13-10-2021 02:00:00 5.81667 C 6.88 g/m*3 5.82 C 0.4 km/h
1386 13-10-2021 03:00:00 5.56667 C 6.79 g/m*3 5.57 C 0 km/h
1387 13-10-2021 04:00:00 5.66667 C 6.85 g/m*3 5.67 C 0 km/h
1388 13-10-2021 05:00:00 6.125 C 7.1 g/m*3 6.13 C 2.675 km/h
1389 13-10-2021 06:00:00 6.29167 C 7.18 g/m*3 6.29 C 2.4 km/h
1390 13-10-2021 07:00:00 6.36667 C 7.21 g/m*3 6.37 C 1.46667 km/h
1391 13-10-2021 08:00:00 6.61667 C 7.33 g/m*3 6.62 C 2 km/h
1392 13-10-2021 09:00:00 7.08333 C 7.56 g/m*3 7.08 C 2.13333 km/h
1393 13-10-2021 10:00:00 7.79167 C 7.91 g/m*3 7.79 C 3.2 km/h
1394 13-10-2021 11:00:00 8.73333 C 8.41 g/m*3 8.73 C 2.4 km/h
1395 13-10-2021 12:00:00 9.6 C 8.82 g/m*3 9.6 C 0.8 km/h
1396 13-10-2021 13:00:00 10.425 C 9.07 g/m*3 10.43 C 2.4 km/h
1397 13-10-2021 14:00:00 11.40833 C 9.17 g/m*3 11.41 C 2.4 km/h
1398 13-10-2021 15:00:00 11.98333 C 9.24 g/m*3 11.98 C 1.6 km/h
1399 13-10-2021 16:00:00 11.79167 C 9.05 g/m*3 11.79 C 6.70833 km/h
1400 13-10-2021 17:00:00 11.00833 C 9.14 g/m*3 11.01 C 2.93333 km/h
Sensor: Nr:Datum:Temp:Abs-Feuchte:Windchill:Wind:
Aussen-T/F 1401 13-10-2021 18:00:00 10.00833 C 8.65 g/m*3 9.63 C 5.46667 km/h
1402 13-10-2021 19:00:00 8.925 C 8.2 g/m*3 8.93 C 3.46667 km/h
1403 13-10-2021 20:00:00 8.825 C 8.26 g/m*3 8.82 C 1.06667 km/h
1404 13-10-2021 21:00:00 8.9 C 8.33 g/m*3 8.9 C 1.46667 km/h
1405 13-10-2021 22:00:00 8.74167 C 8.31 g/m*3 8.74 C 0.66667 km/h
1406 13-10-2021 23:00:00 8.79167 C 8.35 g/m*3 8.79 C 3.06667 km/h
1407 14-10-2021 00:00:00 8.81667 C 8.36 g/m*3 8.82 C 3.33333 km/h
1408 14-10-2021 01:00:00 8.90833 C 8.41 g/m*3 8.91 C 3.21667 km/h
1409 14-10-2021 02:00:00 8.91667 C 8.42 g/m*3 8.92 C 1.6 km/h
1410 14-10-2021 03:00:00 8.84167 C 8.38 g/m*3 8.84 C 2.66667 km/h
1411 14-10-2021 04:00:00 8.95 C 8.41 g/m*3 8.95 C 4.94167 km/h
1412 14-10-2021 05:00:00 9.125 C 8.44 g/m*3 8.74 C 5.08333 km/h
1413 14-10-2021 06:00:00 9.26667 C 8.46 g/m*3 8.02 C 8.6 km/h
1414 14-10-2021 07:00:00 9.31667 C 8.43 g/m*3 8.57 C 6.44167 km/h
1415 14-10-2021 08:00:00 9.4 C 8.5 g/m*3 9.4 C 4.40833 km/h
1416 14-10-2021 09:00:00 9.65833 C 8.62 g/m*3 9.66 C 4.13333 km/h
1417 14-10-2021 10:00:00 10.625 C 8.8 g/m*3 9.57 C 8.89167 km/h
1418 14-10-2021 11:00:00 11.29167 C 9.01 g/m*3 11.29 C 6.83333 km/h
1419 14-10-2021 12:00:00 11.875 C 9.24 g/m*3 11.88 C 7.10833 km/h
1420 14-10-2021 13:00:00 12.96667 C 9.62 g/m*3 12.97 C 9.825 km/h
1421 14-10-2021 14:00:00 14.09167 C 10.08 g/m*3 14.09 C 8.33333 km/h
1422 14-10-2021 15:00:00 13.80833 C 10.22 g/m*3 13.81 C 4.69167 km/h
1423 14-10-2021 16:00:00 13.55 C 10.33 g/m*3 13.55 C 1.73333 km/h
1424 14-10-2021 17:00:00 13.5 C 10.38 g/m*3 13.5 C 1.73333 km/h
1425 14-10-2021 18:00:00 12.94167 C 10.17 g/m*3 12.94 C 3.06667 km/h
Sensor: Nr:Datum:Temp:Abs-Feuchte:Windchill:Wind:
Aussen-T/F 1426 14-10-2021 19:00:00 12.14167 C 9.86 g/m*3 12.14 C 2.8 km/h
1427 14-10-2021 20:00:00 11.775 C 9.78 g/m*3 11.78 C 2.53333 km/h
1428 14-10-2021 21:00:00 11.34167 C 9.55 g/m*3 11.34 C 1.6 km/h
1429 14-10-2021 22:00:00 10.53333 C 9.05 g/m*3 10.53 C 2.66667 km/h
1430 14-10-2021 23:00:00 9.525 C 8.53 g/m*3 9.53 C 1.73333 km/h
1431 15-10-2021 00:00:00 9.11667 C 8.4 g/m*3 9.12 C 1.86667 km/h
1432 15-10-2021 01:00:00 8.89167 C 8.32 g/m*3 8.89 C 2.26667 km/h
1433 15-10-2021 02:00:00 8.20833 C 7.93 g/m*3 8.21 C 3.2 km/h
1434 15-10-2021 03:00:00 7.65 C 7.66 g/m*3 7.65 C 2 km/h
1435 15-10-2021 04:00:00 7.43333 C 7.57 g/m*3 6.43 C 6.30833 km/h
1436 15-10-2021 05:00:00 7.05833 C 7.39 g/m*3 7.06 C 2.80833 km/h
1437 15-10-2021 06:00:00 6.375 C 7.07 g/m*3 6.38 C 0.93333 km/h
1438 15-10-2021 07:00:00 6.01667 C 6.95 g/m*3 6.02 C 2.28333 km/h
1439 15-10-2021 08:00:00 7.45 C 7.67 g/m*3 5.3 C 11.56667 km/h
1440 15-10-2021 09:00:00 8.30833 C 7.95 g/m*3 6.13 C 12.9 km/h
1441 15-10-2021 10:00:00 9.25 C 8.22 g/m*3 7.16 C 13.7 km/h
1442 15-10-2021 11:00:00 10.79167 C 8.64 g/m*3 9.28 C 11.95 km/h
1443 15-10-2021 12:00:00 11.775 C 9.03 g/m*3 11.78 C 9.69167 km/h
1444 15-10-2021 13:00:00 12.54167 C 9.32 g/m*3 12.54 C 8.19167 km/h
1445 15-10-2021 14:00:00 12.68333 C 9.68 g/m*3 12.68 C 5.64167 km/h
1446 15-10-2021 15:00:00 12.40833 C 10.15 g/m*3 12.41 C 1.06667 km/h
1447 15-10-2021 16:00:00 12.23333 C 10.17 g/m*3 12.23 C 0.53333 km/h
1448 15-10-2021 17:00:00 12.14167 C 10.21 g/m*3 12.14 C 0.26667 km/h
1449 15-10-2021 18:00:00 11.525 C 9.76 g/m*3 11.53 C 3.73333 km/h
1450 15-10-2021 19:00:00 10.175 C 8.95 g/m*3 9.67 C 6.00833 km/h
Sensor: Nr:Datum:Temp:Abs-Feuchte:Windchill:Wind:
Aussen-T/F 1451 15-10-2021 20:00:00 8.96667 C 8.34 g/m*3 8.97 C 2.53333 km/h
1452 15-10-2021 21:00:00 7.65 C 7.64 g/m*3 7.65 C 0 km/h
1453 15-10-2021 22:00:00 6.875 C 7.31 g/m*3 6.88 C 0 km/h
1454 15-10-2021 23:00:00 7.125 C 7.5 g/m*3 7.13 C 0.13333 km/h
1455 16-10-2021 00:00:00 7.25 C 7.56 g/m*3 7.25 C 0.13333 km/h
1456 16-10-2021 01:00:00 7.05 C 7.46 g/m*3 7.05 C 0.4 km/h
1457 16-10-2021 02:00:00 6.83333 C 7.39 g/m*3 6.83 C 1.33333 km/h
1458 16-10-2021 03:00:00 6.76667 C 7.4 g/m*3 6.77 C 3.74167 km/h
1459 16-10-2021 04:00:00 6.63333 C 7.34 g/m*3 6.63 C 2.8 km/h
1460 16-10-2021 05:00:00 6.44167 C 7.25 g/m*3 6.44 C 0.53333 km/h
1461 16-10-2021 06:00:00 6.34167 C 7.2 g/m*3 6.34 C 1.33333 km/h
1462 16-10-2021 07:00:00 6.21667 C 7.14 g/m*3 6.22 C 0.53333 km/h
1463 16-10-2021 08:00:00 6.35833 C 7.21 g/m*3 6.36 C 1.46667 km/h
1464 16-10-2021 09:00:00 6.35833 C 7.21 g/m*3 6.36 C 0.13333 km/h
1465 16-10-2021 10:00:00 6.7 C 7.38 g/m*3 6.7 C 0.8 km/h
1466 16-10-2021 11:00:00 7.00833 C 7.56 g/m*3 7.01 C 1.2 km/h
1467 16-10-2021 12:00:00 7.30833 C 7.72 g/m*3 7.31 C 3.2 km/h
1468 16-10-2021 13:00:00 7.78333 C 7.96 g/m*3 7.78 C 3.06667 km/h
1469 16-10-2021 14:00:00 8.48333 C 8.34 g/m*3 8.48 C 2.93333 km/h
1470 16-10-2021 15:00:00 8.94167 C 8.52 g/m*3 8.94 C 0 km/h
1471 16-10-2021 16:00:00 9.45833 C 8.81 g/m*3 9.46 C 0.66667 km/h
1472 16-10-2021 17:00:00 10.48333 C 9.4 g/m*3 10.48 C 0 km/h
1473 16-10-2021 18:00:00 9.9 C 8.96 g/m*3 9.9 C 0.53333 km/h
1474 16-10-2021 19:00:00 9.35833 C 8.66 g/m*3 9.36 C 2 km/h
1475 16-10-2021 20:00:00 8.725 C 8.32 g/m*3 8.73 C 2.93333 km/h
Sensor: Nr:Datum:Temp:Abs-Feuchte:Windchill:Wind:
Aussen-T/F 1476 16-10-2021 21:00:00 8.26667 C 8.07 g/m*3 8.27 C 1.06667 km/h
1477 16-10-2021 22:00:00 8.25 C 8.07 g/m*3 8.25 C 0 km/h
1478 16-10-2021 23:00:00 8.39167 C 8.22 g/m*3 8.39 C 0 km/h
1479 17-10-2021 00:00:00 8.50833 C 8.29 g/m*3 8.51 C 0 km/h
1480 17-10-2021 01:00:00 8.49167 C 8.28 g/m*3 8.49 C 0 km/h
1481 17-10-2021 02:00:00 8.40833 C 8.23 g/m*3 8.41 C 0 km/h
1482 17-10-2021 03:00:00 8.56667 C 8.32 g/m*3 8.57 C 0 km/h
1483 17-10-2021 04:00:00 8.49167 C 8.28 g/m*3 8.49 C 0 km/h
1484 17-10-2021 05:00:00 8.28333 C 8.17 g/m*3 8.28 C 0 km/h
1485 17-10-2021 06:00:00 8.11667 C 8.08 g/m*3 8.12 C 0 km/h
1486 17-10-2021 07:00:00 8.125 C 8.08 g/m*3 8.13 C 0 km/h
1487 17-10-2021 08:00:00 8.20833 C 8.13 g/m*3 8.21 C 0 km/h
1488 17-10-2021 09:00:00 8.49167 C 8.28 g/m*3 8.49 C 0 km/h
1489 17-10-2021 10:00:00 8.975 C 8.54 g/m*3 8.98 C 0.66667 km/h
1490 17-10-2021 11:00:00 9.70833 C 8.89 g/m*3 9.71 C 0.4 km/h
1491 17-10-2021 12:00:00 10.8 C 9.14 g/m*3 10.8 C 0.8 km/h
1492 17-10-2021 13:00:00 11.81667 C 9.1 g/m*3 11.82 C 1.6 km/h
1493 17-10-2021 14:00:00 12.90833 C 8.38 g/m*3 12.91 C 1.33333 km/h
1494 17-10-2021 15:00:00 13.6 C 9.13 g/m*3 13.6 C 0.13333 km/h
1495 17-10-2021 16:00:00 12.95833 C 9.33 g/m*3 12.96 C 1.46667 km/h
1496 17-10-2021 17:00:00 12.13333 C 9.04 g/m*3 12.13 C 4.69167 km/h
1497 17-10-2021 18:00:00 10.34167 C 8.11 g/m*3 9.82 C 6.15833 km/h
1498 17-10-2021 19:00:00 8.775 C 7.68 g/m*3 8.78 C 2.675 km/h
1499 17-10-2021 20:00:00 7.78333 C 7.45 g/m*3 7.78 C 0 km/h
1500 17-10-2021 21:00:00 7.2 C 7.28 g/m*3 7.2 C 0 km/h
Sensor: Nr:Datum:Temp:Abs-Feuchte:Windchill:Wind:
Aussen-T/F 1501 17-10-2021 22:00:00 6.875 C 7.21 g/m*3 6.88 C 0 km/h
1502 17-10-2021 23:00:00 6.51667 C 7.06 g/m*3 6.52 C 0.26667 km/h
1503 18-10-2021 00:00:00 5.73333 C 6.71 g/m*3 5.73 C 0 km/h
1504 18-10-2021 01:00:00 5.14167 C 6.49 g/m*3 5.14 C 0 km/h
1505 18-10-2021 02:00:00 4.75833 C 6.35 g/m*3 4.76 C 0 km/h
1506 18-10-2021 03:00:00 4.45 C 6.22 g/m*3 4.45 C 0 km/h
1507 18-10-2021 04:00:00 4.15833 C 6.13 g/m*3 4.16 C 0.13333 km/h
1508 18-10-2021 05:00:00 4.575 C 6.34 g/m*3 4.58 C 0 km/h
1509 18-10-2021 06:00:00 4.68333 C 6.39 g/m*3 4.68 C 0 km/h
1510 18-10-2021 07:00:00 4.59167 C 6.35 g/m*3 4.59 C 0 km/h
1511 18-10-2021 08:00:00 4.43333 C 6.28 g/m*3 4.43 C 0.13333 km/h
1512 18-10-2021 09:00:00 4.93333 C 6.56 g/m*3 4.93 C 0.26667 km/h
1513 18-10-2021 10:00:00 5.74167 C 6.92 g/m*3 5.74 C 0.26667 km/h
1514 18-10-2021 11:00:00 7.425 C 7.75 g/m*3 7.43 C 0.13333 km/h
1515 18-10-2021 12:00:00 9.18333 C 8.68 g/m*3 9.18 C 2.94167 km/h
1516 18-10-2021 13:00:00 10.6 C 9.08 g/m*3 9.99 C 6.70833 km/h
1517 18-10-2021 14:00:00 12.16667 C 9.37 g/m*3 12.17 C 5.64167 km/h
1518 18-10-2021 15:00:00 12.875 C 9.48 g/m*3 12.88 C 5.075 km/h
1519 18-10-2021 16:00:00 13.03333 C 9.47 g/m*3 13.03 C 4.40833 km/h
1520 18-10-2021 17:00:00 12.425 C 9.47 g/m*3 12.43 C 0.8 km/h
1521 18-10-2021 18:00:00 10.8 C 8.81 g/m*3 10.8 C 1.06667 km/h
1522 18-10-2021 19:00:00 9.175 C 8.2 g/m*3 9.18 C 2.93333 km/h
1523 18-10-2021 20:00:00 8.35 C 7.91 g/m*3 8.35 C 1.86667 km/h
1524 18-10-2021 21:00:00 7.83333 C 7.72 g/m*3 7.83 C 0.26667 km/h
1525 18-10-2021 22:00:00 7.71667 C 7.72 g/m*3 7.72 C 0.8 km/h
Sensor: Nr:Datum:Temp:Abs-Feuchte:Windchill:Wind:
Aussen-T/F 1526 18-10-2021 23:00:00 7.59167 C 7.68 g/m*3 7.59 C 0.53333 km/h
1527 19-10-2021 00:00:00 7.525 C 7.7 g/m*3 7.53 C 0 km/h
1528 19-10-2021 01:00:00 7.925 C 7.9 g/m*3 7.93 C 0 km/h
1529 19-10-2021 02:00:00 7.85 C 7.86 g/m*3 7.85 C 0 km/h
1530 19-10-2021 03:00:00 7.90833 C 7.89 g/m*3 7.91 C 0 km/h
1531 19-10-2021 04:00:00 8.14167 C 8.01 g/m*3 8.14 C 0 km/h
1532 19-10-2021 05:00:00 8.50833 C 8.27 g/m*3 8.51 C 0 km/h
1533 19-10-2021 06:00:00 8.8 C 8.44 g/m*3 8.8 C 0 km/h
1534 19-10-2021 07:00:00 9.1 C 8.61 g/m*3 9.1 C 0 km/h
1535 19-10-2021 08:00:00 9.59167 C 8.88 g/m*3 9.59 C 0.26667 km/h
1536 19-10-2021 09:00:00 10.19167 C 9.23 g/m*3 10.19 C 0 km/h
1537 19-10-2021 10:00:00 10.975 C 9.7 g/m*3 10.98 C 0 km/h
1538 19-10-2021 11:00:00 12.36667 C 10.68 g/m*3 12.37 C 3.35 km/h
1539 19-10-2021 12:00:00 13.625 C 11.55 g/m*3 13.63 C 3.475 km/h
1540 19-10-2021 13:00:00 14.36667 C 12.08 g/m*3 14.37 C 9.95833 km/h
1541 19-10-2021 14:00:00 15.35833 C 12.64 g/m*3 15.36 C 11.15 km/h
1542 19-10-2021 15:00:00 16.20833 C 13 g/m*3 16.21 C 10.20833 km/h
1543 19-10-2021 16:00:00 16.86667 C 13.27 g/m*3 16.87 C 5.75833 km/h
1544 19-10-2021 17:00:00 16.525 C 13.21 g/m*3 16.52 C 3.33333 km/h
1545 19-10-2021 18:00:00 15.91667 C 12.63 g/m*3 15.92 C 5.475 km/h
1546 19-10-2021 19:00:00 14.55 C 11.77 g/m*3 14.55 C 3.2 km/h
1547 19-10-2021 20:00:00 13.35 C 11 g/m*3 13.35 C 0 km/h
1548 19-10-2021 21:00:00 12.76667 C 10.69 g/m*3 12.77 C 0.66667 km/h
1549 19-10-2021 22:00:00 12.06667 C 10.27 g/m*3 12.07 C 0 km/h
1550 19-10-2021 23:00:00 11.73333 C 10.1 g/m*3 11.73 C 1.2 km/h
Sensor: Nr:Datum:Temp:Abs-Feuchte:Windchill:Wind:
Aussen-T/F 1551 20-10-2021 00:00:00 11.625 C 10.01 g/m*3 11.63 C 0.26667 km/h
1552 20-10-2021 01:00:00 10.45833 C 9.29 g/m*3 10.46 C 0 km/h
1553 20-10-2021 02:00:00 10.15 C 9.17 g/m*3 10.15 C 0.13333 km/h
1554 20-10-2021 03:00:00 9.825 C 8.99 g/m*3 9.82 C 0.13333 km/h
1555 20-10-2021 04:00:00 9.55833 C 8.86 g/m*3 9.56 C 0 km/h
1556 20-10-2021 05:00:00 9.775 C 8.99 g/m*3 9.78 C 0 km/h
1557 20-10-2021 06:00:00 10.04167 C 9.15 g/m*3 10.04 C 0 km/h
1558 20-10-2021 07:00:00 10.89167 C 9.68 g/m*3 10.89 C 0.66667 km/h
1559 20-10-2021 08:00:00 11.15 C 9.83 g/m*3 11.15 C 0.13333 km/h
1560 20-10-2021 09:00:00 11.9 C 10.36 g/m*3 11.9 C 0.8 km/h
1561 20-10-2021 10:00:00 12.71667 C 10.92 g/m*3 12.72 C 0.53333 km/h
1562 20-10-2021 11:00:00 14.01667 C 11.73 g/m*3 14.02 C 9.53333 km/h
1563 20-10-2021 12:00:00 16.66667 C 12.15 g/m*3 16.67 C 13.7 km/h
1564 20-10-2021 13:00:00 17.86667 C 12.5 g/m*3 17.87 C 12.9 km/h
1565 20-10-2021 14:00:00 17.76667 C 12.64 g/m*3 17.77 C 11.00833 km/h
1566 20-10-2021 15:00:00 16.99167 C 12.79 g/m*3 16.99 C 2.53333 km/h
1567 20-10-2021 16:00:00 15.86667 C 12.58 g/m*3 15.87 C 1.2 km/h
1568 20-10-2021 17:00:00 15.64167 C 12.64 g/m*3 15.64 C 4.81667 km/h
1569 20-10-2021 18:00:00 15.33333 C 12.43 g/m*3 15.33 C 6.55833 km/h
1570 20-10-2021 19:00:00 14.89167 C 12.17 g/m*3 14.89 C 3.06667 km/h
1571 20-10-2021 20:00:00 14.76667 C 12.14 g/m*3 14.77 C 3.46667 km/h
1572 20-10-2021 21:00:00 14.6 C 12.03 g/m*3 14.6 C 3.86667 km/h
1573 20-10-2021 22:00:00 14.66667 C 12.16 g/m*3 14.67 C 5.21667 km/h
1574 20-10-2021 23:00:00 14.8 C 12.16 g/m*3 14.8 C 2.4 km/h
1575 21-10-2021 00:00:00 14.89167 C 12.17 g/m*3 14.89 C 4.55833 km/h
Sensor: Nr:Datum:Temp:Abs-Feuchte:Windchill:Wind:
Aussen-T/F 1576 21-10-2021 01:00:00 15.375 C 12 g/m*3 15.38 C 8.33333 km/h
1577 21-10-2021 02:00:00 15.675 C 11.85 g/m*3 15.68 C 7.78333 km/h
1578 21-10-2021 03:00:00 14.8 C 11.28 g/m*3 14.8 C 21.325 km/h
1579 21-10-2021 04:00:00 13.80833 C 9.51 g/m*3 13.81 C 23.85 km/h
1580 21-10-2021 05:00:00 13.71667 C 9.09 g/m*3 13.72 C 23.05833 km/h
1581 21-10-2021 06:00:00 13.70833 C 8.94 g/m*3 13.71 C 31.10833 km/h
1582 21-10-2021 07:00:00 13.08333 C 8.9 g/m*3 13.08 C 32.71667 km/h
1583 21-10-2021 08:00:00 12.375 C 8.95 g/m*3 12.38 C 27.225 km/h
1584 21-10-2021 09:00:00 12.00833 C 8.5 g/m*3 12.01 C 25.6 km/h
1585 21-10-2021 10:00:00 11.35833 C 8.18 g/m*3 11.36 C 18.5 km/h
1586 21-10-2021 11:00:00 12.06667 C 8.31 g/m*3 12.07 C 24.13333 km/h
1587 21-10-2021 12:00:00 12.225 C 8.57 g/m*3 12.23 C 17.83333 km/h
1588 21-10-2021 13:00:00 13.3 C 8.74 g/m*3 13.3 C 21.175 km/h
1589 21-10-2021 14:00:00 12.93333 C 8.87 g/m*3 12.93 C 16.76667 km/h
1590 21-10-2021 15:00:00 13.325 C 8.92 g/m*3 13.33 C 13.825 km/h
1591 21-10-2021 16:00:00 12.975 C 8.72 g/m*3 12.98 C 16.1 km/h
1592 21-10-2021 17:00:00 10.53333 C 8.37 g/m*3 8.52 C 15.43333 km/h
1593 21-10-2021 18:00:00 8.53333 C 7.87 g/m*3 7.18 C 8.45833 km/h
1594 21-10-2021 19:00:00 8.29167 C 7.81 g/m*3 7.62 C 5.625 km/h
1595 21-10-2021 20:00:00 8.00833 C 7.76 g/m*3 8.01 C 4.80833 km/h
1596 21-10-2021 21:00:00 6.975 C 7.27 g/m*3 6.98 C 2.8 km/h
1597 21-10-2021 22:00:00 6.125 C 6.91 g/m*3 6.13 C 2.93333 km/h
1598 21-10-2021 23:00:00 5.4 C 6.61 g/m*3 5.4 C 0.8 km/h
1599 22-10-2021 00:00:00 4.825 C 6.38 g/m*3 4.83 C 1.33333 km/h
1600 22-10-2021 01:00:00 4.69167 C 6.34 g/m*3 4.69 C 1.46667 km/h
Sensor: Nr:Datum:Temp:Abs-Feuchte:Windchill:Wind:
Aussen-T/F 1601 22-10-2021 02:00:00 4.50833 C 6.29 g/m*3 4.51 C 2 km/h
1602 22-10-2021 03:00:00 5.13333 C 6.58 g/m*3 3.91 C 5.90833 km/h
1603 22-10-2021 04:00:00 4.81667 C 6.41 g/m*3 4.82 C 4.81667 km/h
1604 22-10-2021 05:00:00 4.80833 C 6.38 g/m*3 3.32 C 6.575 km/h
1605 22-10-2021 06:00:00 4.52222 C 6.25 g/m*3 4.52 C 2.84444 km/h
1606 22-10-2021 07:00:00 4.4 C 6.2 g/m*3 1.84 C 10.46667 km/h
1607 22-10-2021 08:00:00 4.55833 C 6.22 g/m*3 2.36 C 9.00833 km/h
1608 22-10-2021 09:00:00 5.04167 C 6.29 g/m*3 2.52 C 10.89167 km/h
1609 22-10-2021 10:00:00 5.81667 C 6.42 g/m*3 2.73 C 15.16667 km/h
1610 22-10-2021 11:00:00 6.84167 C 6.69 g/m*3 4.21 C 13.7 km/h
1611 22-10-2021 12:00:00 8.24167 C 7.04 g/m*3 5.59 C 16.23333 km/h
1612 22-10-2021 13:00:00 10 C 7.47 g/m*3 7.77 C 16.23333 km/h
1613 22-10-2021 14:00:00 10.93333 C 7.5 g/m*3 8.99 C 15.7 km/h
1614 22-10-2021 15:00:00 11.6 C 7.14 g/m*3 11.6 C 14.63333 km/h
1615 22-10-2021 16:00:00 11.38333 C 6.97 g/m*3 11.38 C 15.83333 km/h
1616 22-10-2021 17:00:00 11.20833 C 7.11 g/m*3 11.21 C 12.1 km/h
1617 22-10-2021 18:00:00 10.68333 C 7.31 g/m*3 9.17 C 11.825 km/h
1618 22-10-2021 19:00:00 9.75 C 7.44 g/m*3 8.29 C 10.225 km/h
1619 22-10-2021 20:00:00 9.86667 C 7.43 g/m*3 8.1 C 12.36667 km/h
1620 22-10-2021 21:00:00 9.9 C 7.51 g/m*3 8.3 C 11.28333 km/h
1621 22-10-2021 22:00:00 9.15833 C 7.83 g/m*3 9.16 C 3.20833 km/h
1622 22-10-2021 23:00:00 8.49167 C 7.94 g/m*3 8.49 C 2.93333 km/h
1623 23-10-2021 00:00:00 8.175 C 7.85 g/m*3 8.18 C 2.66667 km/h

Maximal/Minimal-Werte vom 17.04.2019 - 19.05.2019

Sensor Min Max Avg
Temp
(Aussen-T/F)
2.2 °C
13-05-2019  06:50:00
26.6 °C
24-04-2019  17:05:00
11.51 °C

Die Daten stammen von einer Davis Vantage Pro 2 Wetter-Station und werden unter Linux mit der Software wview2wettercgi und aufbereitet. Alle Angaben erfolgen ohne Gewähr für ihre Vollständigkeit oder Richtigkeit.
Kontakt: Rainer Krienke krienke@uni-koblenz.de . Meine Webseiten an der Uni Koblenz oder privat.
Version: $Revision: 0.78 $